PWSweather.com
Personal Weather Stations
Station Observations
IQUEENSL78
Red HillAU 4059

Red HillAU 4059

Lat: -27.45317, Lon: 152.997708

Elevation: 40

Station Type: FOS WH3081

High Low Average
Temperature 70.3°F21.3°C 59.5°F15.3°C 63.7°F17.6°C
Dew Point 64.9°F18.3°C 57.2°F14.0°C 60.6°F15.9°C
Winds 7.8 mph 12.6 kmh Calm Calm Calm NNECalm NNE
Wind Gusts 7.8 mph12.6 kmh -- 1.0 mph1.6 kmh
Humidity 93% 79% 90%
Pressure 30.14 in1020.7 mb 29.94 in1013.9 mb -
Precipitation 0.63 in16.0 mm - -
Hour Temp Dew Point Humidity Winds Wind Gusts Pressure Precip Precip Rate Daily Precip Total
12:00 AM 61.3°F16.3°C 59.0°F15.0°C 92% Calm Calm -- 30.14 in1020.7 mb 0.00 in0.0 mm 0.00 in/hr0.0 mm/hr 0.00 in0.0 mm
12:02 AM 61.5°F16.4°C 59.2°F15.1°C 92% Calm Calm -- 30.13 in1020.3 mb 0.00 in0.0 mm 0.00 in/hr0.0 mm/hr 0.00 in0.0 mm
12:04 AM 61.3°F16.3°C 59.0°F15.0°C 92% Calm Calm -- 30.13 in1020.3 mb 0.00 in0.0 mm 0.00 in/hr0.0 mm/hr 0.00 in0.0 mm
12:06 AM 61.3°F16.3°C 59.0°F15.0°C 92% Calm Calm -- 30.13 in1020.3 mb 0.00 in0.0 mm 0.00 in/hr0.0 mm/hr 0.00 in0.0 mm
12:08 AM 61.3°F16.3°C 59.0°F15.0°C 92% Calm Calm -- 30.13 in1020.3 mb 0.02 in0.5 mm 0.60 in/hr15.2 mm/hr 0.02 in0.5 mm
12:10 AM 61.5°F16.4°C 59.2°F15.1°C 92% Calm Calm -- 30.12 in1020.0 mb 0.02 in0.5 mm 0.00 in/hr0.0 mm/hr 0.02 in0.5 mm
12:12 AM 61.5°F16.4°C 59.2°F15.1°C 92% Calm Calm -- 30.12 in1020.0 mb 0.02 in0.5 mm 0.00 in/hr0.0 mm/hr 0.02 in0.5 mm
12:14 AM 61.5°F16.4°C 59.2°F15.1°C 92% Calm Calm -- 30.12 in1020.0 mb 0.02 in0.5 mm 0.00 in/hr0.0 mm/hr 0.02 in0.5 mm
12:16 AM 61.5°F16.4°C 59.2°F15.1°C 92% Calm Calm -- 30.12 in1020.0 mb 0.02 in0.5 mm 0.00 in/hr0.0 mm/hr 0.02 in0.5 mm
12:18 AM 61.5°F16.4°C 59.2°F15.1°C 92% Calm Calm -- 30.12 in1020.0 mb 0.02 in0.5 mm 0.00 in/hr0.0 mm/hr 0.02 in0.5 mm
12:20 AM 61.3°F16.3°C 59.0°F15.0°C 92% Calm Calm -- 30.12 in1020.0 mb 0.02 in0.5 mm 0.00 in/hr0.0 mm/hr 0.02 in0.5 mm
12:22 AM 61.3°F16.3°C 59.0°F15.0°C 92% Calm Calm -- 30.12 in1020.0 mb 0.02 in0.5 mm 0.00 in/hr0.0 mm/hr 0.02 in0.5 mm
12:24 AM 61.3°F16.3°C 59.0°F15.0°C 92% Calm Calm -- 30.12 in1020.0 mb 0.02 in0.5 mm 0.00 in/hr0.0 mm/hr 0.02 in0.5 mm
12:26 AM 61.3°F16.3°C 59.0°F15.0°C 92% Calm Calm -- 30.12 in1020.0 mb 0.02 in0.5 mm 0.00 in/hr0.0 mm/hr 0.02 in0.5 mm
12:28 AM 61.5°F16.4°C 59.2°F15.1°C 92% Calm Calm -- 30.12 in1020.0 mb 0.02 in0.5 mm 0.00 in/hr0.0 mm/hr 0.02 in0.5 mm
12:30 AM 61.5°F16.4°C 59.2°F15.1°C 92% Calm Calm -- 30.12 in1020.0 mb 0.02 in0.5 mm 0.00 in/hr0.0 mm/hr 0.02 in0.5 mm
12:32 AM 61.3°F16.3°C 59.0°F15.0°C 92% Calm Calm -- 30.12 in1020.0 mb 0.02 in0.5 mm 0.00 in/hr0.0 mm/hr 0.02 in0.5 mm
12:34 AM 61.3°F16.3°C 59.0°F15.0°C 92% Calm Calm -- 30.12 in1020.0 mb 0.02 in0.5 mm 0.00 in/hr0.0 mm/hr 0.02 in0.5 mm
12:36 AM 61.3°F16.3°C 59.0°F15.0°C 92% Calm Calm -- 30.12 in1020.0 mb 0.02 in0.5 mm 0.00 in/hr0.0 mm/hr 0.02 in0.5 mm
12:38 AM 61.3°F16.3°C 59.0°F15.0°C 92% Calm Calm -- 30.12 in1020.0 mb 0.02 in0.5 mm 0.00 in/hr0.0 mm/hr 0.02 in0.5 mm
12:40 AM 61.3°F16.3°C 59.0°F15.0°C 92% Calm Calm -- 30.12 in1020.0 mb 0.02 in0.5 mm 0.00 in/hr0.0 mm/hr 0.02 in0.5 mm
12:42 AM 61.3°F16.3°C 59.0°F15.0°C 92% Calm Calm -- 30.12 in1020.0 mb 0.02 in0.5 mm 0.00 in/hr0.0 mm/hr 0.02 in0.5 mm
12:44 AM 61.3°F16.3°C 59.0°F15.0°C 92% 2.0 mph SE3.2 kmh SE 2.0 mph3.2 kmh 30.13 in1020.3 mb 0.02 in0.5 mm 0.00 in/hr0.0 mm/hr 0.02 in0.5 mm
12:46 AM 61.3°F16.3°C 59.0°F15.0°C 92% Calm Calm 2.0 mph3.2 kmh 30.13 in1020.3 mb 0.02 in0.5 mm 0.00 in/hr0.0 mm/hr 0.02 in0.5 mm
12:48 AM 61.3°F16.3°C 59.0°F15.0°C 92% Calm Calm 2.0 mph3.2 kmh 30.12 in1020.0 mb 0.04 in1.0 mm 0.60 in/hr15.2 mm/hr 0.04 in1.0 mm
12:50 AM 61.3°F16.3°C 59.0°F15.0°C 92% Calm Calm 2.0 mph3.2 kmh 30.12 in1020.0 mb 0.04 in1.0 mm 0.00 in/hr0.0 mm/hr 0.04 in1.0 mm
12:52 AM 61.3°F16.3°C 59.0°F15.0°C 92% Calm Calm 2.0 mph3.2 kmh 30.12 in1020.0 mb 0.06 in1.5 mm 0.60 in/hr15.2 mm/hr 0.06 in1.5 mm
12:54 AM 61.3°F16.3°C 59.0°F15.0°C 92% Calm Calm 2.0 mph3.2 kmh 30.12 in1020.0 mb 0.06 in1.5 mm 0.00 in/hr0.0 mm/hr 0.06 in1.5 mm
12:56 AM 61.3°F16.3°C 59.3°F15.2°C 93% Calm Calm -- 30.12 in1020.0 mb 0.06 in1.5 mm 0.00 in/hr0.0 mm/hr 0.06 in1.5 mm
12:58 AM 61.3°F16.3°C 59.3°F15.2°C 93% Calm Calm -- 30.12 in1020.0 mb 0.06 in1.5 mm 0.00 in/hr0.0 mm/hr 0.06 in1.5 mm
01:00 AM 61.2°F16.2°C 59.1°F15.1°C 93% Calm Calm -- 30.11 in1019.6 mb 0.08 in2.0 mm 0.02 in/hr0.5 mm/hr 0.08 in2.0 mm
01:02 AM 61.2°F16.2°C 59.1°F15.1°C 93% Calm Calm -- 30.12 in1020.0 mb 0.08 in2.0 mm 0.00 in/hr0.0 mm/hr 0.08 in2.0 mm
01:04 AM 61.2°F16.2°C 59.1°F15.1°C 93% Calm Calm -- 30.12 in1020.0 mb 0.08 in2.0 mm 0.00 in/hr0.0 mm/hr 0.08 in2.0 mm
01:06 AM 61.2°F16.2°C 59.1°F15.1°C 93% Calm Calm -- 30.12 in1020.0 mb 0.08 in2.0 mm 0.00 in/hr0.0 mm/hr 0.08 in2.0 mm
01:08 AM 61.2°F16.2°C 59.1°F15.1°C 93% Calm Calm -- 30.12 in1020.0 mb 0.06 in1.5 mm 0.00 in/hr0.0 mm/hr 0.08 in2.0 mm
01:10 AM 61.0°F16.1°C 58.9°F14.9°C 93% Calm Calm -- 30.12 in1020.0 mb 0.06 in1.5 mm 0.00 in/hr0.0 mm/hr 0.08 in2.0 mm
01:12 AM 61.0°F16.1°C 58.9°F14.9°C 93% Calm Calm -- 30.12 in1020.0 mb 0.06 in1.5 mm 0.00 in/hr0.0 mm/hr 0.08 in2.0 mm
01:14 AM 61.0°F16.1°C 58.9°F14.9°C 93% Calm Calm -- 30.11 in1019.6 mb 0.06 in1.5 mm 0.00 in/hr0.0 mm/hr 0.08 in2.0 mm
01:16 AM 61.0°F16.1°C 58.9°F14.9°C 93% Calm Calm -- 30.11 in1019.6 mb 0.06 in1.5 mm 0.00 in/hr0.0 mm/hr 0.08 in2.0 mm
01:18 AM 61.0°F16.1°C 58.9°F14.9°C 93% Calm Calm -- 30.11 in1019.6 mb 0.06 in1.5 mm 0.00 in/hr0.0 mm/hr 0.08 in2.0 mm
01:20 AM 61.0°F16.1°C 58.9°F14.9°C 93% 3.1 mph ENE5.0 kmh ENE 3.1 mph5.0 kmh 30.11 in1019.6 mb 0.06 in1.5 mm 0.00 in/hr0.0 mm/hr 0.08 in2.0 mm
01:22 AM 61.0°F16.1°C 58.9°F14.9°C 93% Calm Calm 3.1 mph5.0 kmh 30.11 in1019.6 mb 0.06 in1.5 mm 0.00 in/hr0.0 mm/hr 0.08 in2.0 mm
01:24 AM 61.0°F16.1°C 58.9°F14.9°C 93% Calm Calm 3.1 mph5.0 kmh 30.11 in1019.6 mb 0.06 in1.5 mm 0.00 in/hr0.0 mm/hr 0.08 in2.0 mm
01:26 AM 61.0°F16.1°C 58.9°F14.9°C 93% Calm Calm 3.1 mph5.0 kmh 30.11 in1019.6 mb 0.06 in1.5 mm 0.00 in/hr0.0 mm/hr 0.08 in2.0 mm
01:28 AM 61.0°F16.1°C 58.9°F14.9°C 93% Calm Calm 3.1 mph5.0 kmh 30.11 in1019.6 mb 0.06 in1.5 mm 0.00 in/hr0.0 mm/hr 0.08 in2.0 mm
01:30 AM 61.0°F16.1°C 58.9°F14.9°C 93% Calm Calm 3.1 mph5.0 kmh 30.11 in1019.6 mb 0.06 in1.5 mm 0.00 in/hr0.0 mm/hr 0.08 in2.0 mm
01:32 AM 61.0°F16.1°C 58.9°F14.9°C 93% Calm Calm -- 30.11 in1019.6 mb 0.06 in1.5 mm 0.00 in/hr0.0 mm/hr 0.08 in2.0 mm
01:34 AM 61.0°F16.1°C 58.9°F14.9°C 93% Calm Calm -- 30.11 in1019.6 mb 0.06 in1.5 mm 0.00 in/hr0.0 mm/hr 0.08 in2.0 mm
01:36 AM 61.0°F16.1°C 58.9°F14.9°C 93% Calm Calm -- 30.11 in1019.6 mb 0.06 in1.5 mm 0.00 in/hr0.0 mm/hr 0.08 in2.0 mm
01:38 AM 61.0°F16.1°C 58.9°F14.9°C 93% Calm Calm -- 30.11 in1019.6 mb 0.06 in1.5 mm 0.00 in/hr0.0 mm/hr 0.08 in2.0 mm
01:40 AM 61.0°F16.1°C 58.9°F14.9°C 93% Calm Calm -- 30.11 in1019.6 mb 0.06 in1.5 mm 0.00 in/hr0.0 mm/hr 0.08 in2.0 mm
01:42 AM 61.0°F16.1°C 58.9°F14.9°C 93% Calm Calm -- 30.11 in1019.6 mb 0.06 in1.5 mm 0.00 in/hr0.0 mm/hr 0.08 in2.0 mm
01:44 AM 61.0°F16.1°C 58.9°F14.9°C 93% Calm Calm -- 30.11 in1019.6 mb 0.06 in1.5 mm 0.00 in/hr0.0 mm/hr 0.08 in2.0 mm
01:46 AM 61.0°F16.1°C 58.9°F14.9°C 93% Calm Calm -- 30.11 in1019.6 mb 0.04 in1.0 mm 0.00 in/hr0.0 mm/hr 0.08 in2.0 mm
01:48 AM 61.0°F16.1°C 58.9°F14.9°C 93% Calm Calm -- 30.10 in1019.3 mb 0.04 in1.0 mm 0.00 in/hr0.0 mm/hr 0.08 in2.0 mm
01:50 AM 60.8°F16.0°C 58.8°F14.9°C 93% Calm Calm -- 30.10 in1019.3 mb 0.02 in0.5 mm 0.00 in/hr0.0 mm/hr 0.08 in2.0 mm
01:52 AM 60.6°F15.9°C 58.6°F14.8°C 93% Calm Calm -- 30.10 in1019.3 mb 0.02 in0.5 mm 0.00 in/hr0.0 mm/hr 0.08 in2.0 mm
01:54 AM 60.8°F16.0°C 58.8°F14.9°C 93% Calm Calm -- 30.10 in1019.3 mb 0.02 in0.5 mm 0.00 in/hr0.0 mm/hr 0.08 in2.0 mm
01:56 AM 60.6°F15.9°C 58.6°F14.8°C 93% Calm Calm -- 30.10 in1019.3 mb 0.02 in0.5 mm 0.00 in/hr0.0 mm/hr 0.08 in2.0 mm
01:58 AM 60.8°F16.0°C 58.8°F14.9°C 93% Calm Calm -- 30.10 in1019.3 mb 0.02 in0.5 mm 0.00 in/hr0.0 mm/hr 0.08 in2.0 mm
02:00 AM 60.6°F15.9°C 58.6°F14.8°C 93% Calm Calm -- 30.10 in1019.3 mb 0.00 in0.0 mm 0.00 in/hr0.0 mm/hr 0.08 in2.0 mm
02:02 AM 60.6°F15.9°C 58.6°F14.8°C 93% Calm Calm -- 30.10 in1019.3 mb 0.00 in0.0 mm 0.00 in/hr0.0 mm/hr 0.08 in2.0 mm
02:04 AM 60.6°F15.9°C 58.6°F14.8°C 93% Calm Calm -- 30.10 in1019.3 mb 0.00 in0.0 mm 0.00 in/hr0.0 mm/hr 0.08 in2.0 mm
02:06 AM 60.6°F15.9°C 58.6°F14.8°C 93% Calm Calm -- 30.10 in1019.3 mb 0.00 in0.0 mm 0.00 in/hr0.0 mm/hr 0.08 in2.0 mm
02:08 AM 60.6°F15.9°C 58.6°F14.8°C 93% Calm Calm -- 30.10 in1019.3 mb 0.00 in0.0 mm 0.00 in/hr0.0 mm/hr 0.08 in2.0 mm
02:10 AM 60.6°F15.9°C 58.6°F14.8°C 93% Calm Calm -- 30.11 in1019.6 mb 0.00 in0.0 mm 0.00 in/hr0.0 mm/hr 0.08 in2.0 mm
02:12 AM 60.6°F15.9°C 58.6°F14.8°C 93% Calm Calm -- 30.11 in1019.6 mb 0.00 in0.0 mm 0.00 in/hr0.0 mm/hr 0.08 in2.0 mm
02:14 AM 60.6°F15.9°C 58.6°F14.8°C 93% Calm Calm -- 30.10 in1019.3 mb 0.00 in0.0 mm 0.00 in/hr0.0 mm/hr 0.08 in2.0 mm
02:16 AM 60.6°F15.9°C 58.6°F14.8°C 93% Calm Calm -- 30.10 in1019.3 mb 0.00 in0.0 mm 0.00 in/hr0.0 mm/hr 0.08 in2.0 mm
02:18 AM 60.6°F15.9°C 58.6°F14.8°C 93% Calm Calm -- 30.10 in1019.3 mb 0.00 in0.0 mm 0.00 in/hr0.0 mm/hr 0.08 in2.0 mm
02:20 AM 60.6°F15.9°C 58.6°F14.8°C 93% Calm Calm -- 30.10 in1019.3 mb 0.00 in0.0 mm 0.00 in/hr0.0 mm/hr 0.08 in2.0 mm
02:22 AM 60.6°F15.9°C 58.6°F14.8°C 93% Calm Calm -- 30.10 in1019.3 mb 0.00 in0.0 mm 0.00 in/hr0.0 mm/hr 0.08 in2.0 mm
02:24 AM 60.6°F15.9°C 58.6°F14.8°C 93% Calm Calm -- 30.10 in1019.3 mb 0.00 in0.0 mm 0.00 in/hr0.0 mm/hr 0.08 in2.0 mm
02:26 AM 60.6°F15.9°C 58.3°F14.6°C 92% Calm Calm -- 30.10 in1019.3 mb 0.00 in0.0 mm 0.00 in/hr0.0 mm/hr 0.08 in2.0 mm
02:28 AM 60.6°F15.9°C 58.3°F14.6°C 92% Calm Calm -- 30.10 in1019.3 mb 0.00 in0.0 mm 0.00 in/hr0.0 mm/hr 0.08 in2.0 mm
02:30 AM 60.6°F15.9°C 58.6°F14.8°C 93% Calm Calm -- 30.10 in1019.3 mb 0.00 in0.0 mm 0.00 in/hr0.0 mm/hr 0.08 in2.0 mm
02:32 AM 60.6°F15.9°C 58.6°F14.8°C 93% Calm Calm -- 30.10 in1019.3 mb 0.00 in0.0 mm 0.00 in/hr0.0 mm/hr 0.08 in2.0 mm
02:34 AM 60.6°F15.9°C 58.3°F14.6°C 92% Calm Calm -- 30.10 in1019.3 mb 0.00 in0.0 mm 0.00 in/hr0.0 mm/hr 0.08 in2.0 mm
02:36 AM 60.6°F15.9°C 58.6°F14.8°C 93% Calm Calm -- 30.10 in1019.3 mb 0.00 in0.0 mm 0.00 in/hr0.0 mm/hr 0.08 in2.0 mm
02:38 AM 60.6°F15.9°C 58.3°F14.6°C 92% Calm Calm -- 30.10 in1019.3 mb 0.00 in0.0 mm 0.00 in/hr0.0 mm/hr 0.08 in2.0 mm
02:40 AM 60.6°F15.9°C 58.6°F14.8°C 93% Calm Calm -- 30.10 in1019.3 mb 0.00 in0.0 mm 0.00 in/hr0.0 mm/hr 0.08 in2.0 mm
02:42 AM 60.6°F15.9°C 58.6°F14.8°C 92% Calm Calm -- 30.10 in1019.3 mb 0.00 in0.0 mm 0.00 in/hr0.0 mm/hr 0.08 in2.0 mm
02:44 AM 60.6°F15.9°C 58.3°F14.6°C 92% Calm Calm -- 30.10 in1019.3 mb 0.00 in0.0 mm 0.00 in/hr0.0 mm/hr 0.08 in2.0 mm
02:46 AM 60.6°F15.9°C 58.3°F14.6°C 92% Calm Calm -- 30.10 in1019.3 mb 0.00 in0.0 mm 0.00 in/hr0.0 mm/hr 0.08 in2.0 mm
02:48 AM 60.6°F15.9°C 58.3°F14.6°C 92% Calm Calm -- 30.10 in1019.3 mb 0.00 in0.0 mm 0.00 in/hr0.0 mm/hr 0.08 in2.0 mm
02:50 AM 60.6°F15.9°C 58.3°F14.6°C 92% Calm Calm -- 30.10 in1019.3 mb 0.00 in0.0 mm 0.00 in/hr0.0 mm/hr 0.08 in2.0 mm
02:52 AM 60.6°F15.9°C 58.3°F14.6°C 92% Calm Calm -- 30.10 in1019.3 mb 0.00 in0.0 mm 0.00 in/hr0.0 mm/hr 0.08 in2.0 mm
02:54 AM 60.6°F15.9°C 58.3°F14.6°C 92% Calm Calm -- 30.09 in1019.0 mb 0.00 in0.0 mm 0.00 in/hr0.0 mm/hr 0.08 in2.0 mm
02:56 AM 60.6°F15.9°C 58.3°F14.6°C 92% Calm Calm -- 30.10 in1019.3 mb 0.00 in0.0 mm 0.00 in/hr0.0 mm/hr 0.08 in2.0 mm
02:58 AM 60.6°F15.9°C 58.3°F14.6°C 92% Calm Calm -- 30.10 in1019.3 mb 0.00 in0.0 mm 0.00 in/hr0.0 mm/hr 0.08 in2.0 mm
03:00 AM 60.4°F15.8°C 58.1°F14.5°C 92% Calm Calm -- 30.10 in1019.3 mb 0.00 in0.0 mm 0.00 in/hr0.0 mm/hr 0.08 in2.0 mm
03:02 AM 60.4°F15.8°C 58.1°F14.5°C 92% Calm Calm -- 30.10 in1019.3 mb 0.00 in0.0 mm 0.00 in/hr0.0 mm/hr 0.08 in2.0 mm
03:04 AM 60.4°F15.8°C 58.1°F14.5°C 92% Calm Calm -- 30.10 in1019.3 mb 0.00 in0.0 mm 0.00 in/hr0.0 mm/hr 0.08 in2.0 mm
03:06 AM 60.4°F15.8°C 58.1°F14.5°C 92% Calm Calm -- 30.09 in1019.0 mb 0.00 in0.0 mm 0.00 in/hr0.0 mm/hr 0.08 in2.0 mm
03:08 AM 60.6°F15.9°C 58.3°F14.6°C 92% Calm Calm -- 30.10 in1019.3 mb 0.00 in0.0 mm 0.00 in/hr0.0 mm/hr 0.08 in2.0 mm
03:10 AM 60.4°F15.8°C 58.1°F14.5°C 92% Calm Calm -- 30.10 in1019.3 mb 0.00 in0.0 mm 0.00 in/hr0.0 mm/hr 0.08 in2.0 mm
03:12 AM 60.4°F15.8°C 58.1°F14.5°C 92% Calm Calm -- 30.10 in1019.3 mb 0.00 in0.0 mm 0.00 in/hr0.0 mm/hr 0.08 in2.0 mm
03:14 AM 60.4°F15.8°C 58.1°F14.5°C 92% Calm Calm -- 30.09 in1019.0 mb 0.00 in0.0 mm 0.00 in/hr0.0 mm/hr 0.08 in2.0 mm
03:16 AM 60.4°F15.8°C 58.1°F14.5°C 92% Calm Calm -- 30.09 in1019.0 mb 0.00 in0.0 mm 0.00 in/hr0.0 mm/hr 0.08 in2.0 mm
03:18 AM 60.4°F15.8°C 58.1°F14.5°C 92% Calm Calm -- 30.09 in1019.0 mb 0.00 in0.0 mm 0.00 in/hr0.0 mm/hr 0.08 in2.0 mm
03:20 AM 60.4°F15.8°C 58.1°F14.5°C 92% Calm Calm -- 30.09 in1019.0 mb 0.00 in0.0 mm 0.00 in/hr0.0 mm/hr 0.08 in2.0 mm
03:22 AM 60.4°F15.8°C 58.1°F14.5°C 92% Calm Calm -- 30.09 in1019.0 mb 0.00 in0.0 mm 0.00 in/hr0.0 mm/hr 0.08 in2.0 mm
03:24 AM 60.4°F15.8°C 58.1°F14.5°C 92% Calm Calm -- 30.09 in1019.0 mb 0.00 in0.0 mm 0.00 in/hr0.0 mm/hr 0.08 in2.0 mm
03:26 AM 60.4°F15.8°C 58.1°F14.5°C 92% Calm Calm -- 30.09 in1019.0 mb 0.00 in0.0 mm 0.00 in/hr0.0 mm/hr 0.08 in2.0 mm
03:28 AM 60.4°F15.8°C 58.1°F14.5°C 92% Calm Calm -- 30.08 in1018.6 mb 0.00 in0.0 mm 0.00 in/hr0.0 mm/hr 0.08 in2.0 mm
03:30 AM 60.4°F15.8°C 58.1°F14.5°C 92% Calm Calm -- 30.08 in1018.6 mb 0.00 in0.0 mm 0.00 in/hr0.0 mm/hr 0.08 in2.0 mm
03:32 AM 60.4°F15.8°C 58.1°F14.5°C 92% Calm Calm -- 30.09 in1019.0 mb 0.00 in0.0 mm 0.00 in/hr0.0 mm/hr 0.08 in2.0 mm
03:34 AM 60.4°F15.8°C 58.1°F14.5°C 92% Calm Calm -- 30.09 in1019.0 mb 0.00 in0.0 mm 0.00 in/hr0.0 mm/hr 0.08 in2.0 mm
03:36 AM 60.4°F15.8°C 58.1°F14.5°C 92% Calm Calm -- 30.08 in1018.6 mb 0.00 in0.0 mm 0.00 in/hr0.0 mm/hr 0.08 in2.0 mm
03:38 AM 60.4°F15.8°C 58.1°F14.5°C 92% Calm Calm -- 30.08 in1018.6 mb 0.00 in0.0 mm 0.00 in/hr0.0 mm/hr 0.08 in2.0 mm
03:40 AM 60.4°F15.8°C 58.1°F14.5°C 92% Calm Calm -- 30.08 in1018.6 mb 0.00 in0.0 mm 0.00 in/hr0.0 mm/hr 0.08 in2.0 mm
03:42 AM 60.4°F15.8°C 58.1°F14.5°C 92% Calm Calm -- 30.08 in1018.6 mb 0.00 in0.0 mm 0.00 in/hr0.0 mm/hr 0.08 in2.0 mm
03:44 AM 60.4°F15.8°C 58.1°F14.5°C 92% Calm Calm -- 30.08 in1018.6 mb 0.00 in0.0 mm 0.00 in/hr0.0 mm/hr 0.08 in2.0 mm
03:46 AM 60.4°F15.8°C 58.1°F14.5°C 92% Calm Calm -- 30.08 in1018.6 mb 0.00 in0.0 mm 0.00 in/hr0.0 mm/hr 0.08 in2.0 mm
03:48 AM 60.4°F15.8°C 58.1°F14.5°C 92% Calm Calm -- 30.08 in1018.6 mb 0.00 in0.0 mm 0.00 in/hr0.0 mm/hr 0.08 in2.0 mm
03:50 AM 60.4°F15.8°C 58.1°F14.5°C 92% Calm Calm -- 30.07 in1018.3 mb 0.00 in0.0 mm 0.00 in/hr0.0 mm/hr 0.08 in2.0 mm
03:52 AM 60.4°F15.8°C 58.1°F14.5°C 92% Calm Calm -- 30.07 in1018.3 mb 0.00 in0.0 mm 0.00 in/hr0.0 mm/hr 0.08 in2.0 mm
03:54 AM 60.3°F15.7°C 57.9°F14.4°C 92% Calm Calm -- 30.07 in1018.3 mb 0.00 in0.0 mm 0.00 in/hr0.0 mm/hr 0.08 in2.0 mm
03:56 AM 60.3°F15.7°C 57.9°F14.4°C 92% Calm Calm -- 30.07 in1018.3 mb 0.00 in0.0 mm 0.00 in/hr0.0 mm/hr 0.08 in2.0 mm
03:58 AM 60.3°F15.7°C 57.9°F14.4°C 92% Calm Calm -- 30.07 in1018.3 mb 0.00 in0.0 mm 0.00 in/hr0.0 mm/hr 0.08 in2.0 mm
04:00 AM 60.1°F15.6°C 57.7°F14.3°C 92% Calm Calm -- 30.07 in1018.3 mb 0.00 in0.0 mm 0.00 in/hr0.0 mm/hr 0.08 in2.0 mm
04:02 AM 60.1°F15.6°C 57.7°F14.3°C 92% Calm Calm -- 30.07 in1018.3 mb 0.00 in0.0 mm 0.00 in/hr0.0 mm/hr 0.08 in2.0 mm
04:04 AM 60.1°F15.6°C 57.7°F14.3°C 92% Calm Calm -- 30.07 in1018.3 mb 0.00 in0.0 mm 0.00 in/hr0.0 mm/hr 0.08 in2.0 mm
04:06 AM 60.1°F15.6°C 57.7°F14.3°C 92% Calm Calm -- 30.07 in1018.3 mb 0.00 in0.0 mm 0.00 in/hr0.0 mm/hr 0.08 in2.0 mm
04:08 AM 60.1°F15.6°C 57.7°F14.3°C 92% Calm Calm -- 30.06 in1017.9 mb 0.00 in0.0 mm 0.00 in/hr0.0 mm/hr 0.08 in2.0 mm
04:10 AM 60.1°F15.6°C 57.7°F14.3°C 92% 0.2 mph SE0.3 kmh SE 0.2 mph0.3 kmh 30.06 in1017.9 mb 0.00 in0.0 mm 0.00 in/hr0.0 mm/hr 0.08 in2.0 mm
04:12 AM 60.1°F15.6°C 57.7°F14.3°C 92% Calm Calm 0.2 mph0.3 kmh 30.06 in1017.9 mb 0.00 in0.0 mm 0.00 in/hr0.0 mm/hr 0.08 in2.0 mm
04:14 AM 60.1°F15.6°C 57.7°F14.3°C 92% Calm Calm 0.2 mph0.3 kmh 30.06 in1017.9 mb 0.00 in0.0 mm 0.00 in/hr0.0 mm/hr 0.08 in2.0 mm
04:16 AM 60.1°F15.6°C 57.7°F14.3°C 92% Calm Calm 0.2 mph0.3 kmh 30.06 in1017.9 mb 0.00 in0.0 mm 0.00 in/hr0.0 mm/hr 0.08 in2.0 mm
04:18 AM 60.1°F15.6°C 57.7°F14.3°C 92% Calm Calm 0.2 mph0.3 kmh 30.06 in1017.9 mb 0.00 in0.0 mm 0.00 in/hr0.0 mm/hr 0.08 in2.0 mm
04:20 AM 60.1°F15.6°C 57.7°F14.3°C 92% Calm Calm 0.2 mph0.3 kmh 30.06 in1017.9 mb 0.00 in0.0 mm 0.00 in/hr0.0 mm/hr 0.08 in2.0 mm
04:22 AM 60.1°F15.6°C 57.7°F14.3°C 92% Calm Calm -- 30.06 in1017.9 mb 0.00 in0.0 mm 0.00 in/hr0.0 mm/hr 0.08 in2.0 mm
04:24 AM 59.9°F15.5°C 57.6°F14.2°C 92% 3.1 mph E5.0 kmh E 3.1 mph5.0 kmh 30.06 in1017.9 mb 0.00 in0.0 mm 0.00 in/hr0.0 mm/hr 0.08 in2.0 mm
04:26 AM 59.9°F15.5°C 57.6°F14.2°C 92% Calm Calm 3.1 mph5.0 kmh 30.06 in1017.9 mb 0.00 in0.0 mm 0.00 in/hr0.0 mm/hr 0.08 in2.0 mm
04:28 AM 59.9°F15.5°C 57.6°F14.2°C 92% Calm Calm 3.1 mph5.0 kmh 30.06 in1017.9 mb 0.00 in0.0 mm 0.00 in/hr0.0 mm/hr 0.08 in2.0 mm
04:30 AM 59.9°F15.5°C 57.6°F14.2°C 92% Calm Calm 3.1 mph5.0 kmh 30.06 in1017.9 mb 0.00 in0.0 mm 0.00 in/hr0.0 mm/hr 0.08 in2.0 mm
04:32 AM 59.9°F15.5°C 57.6°F14.2°C 92% Calm Calm 3.1 mph5.0 kmh 30.07 in1018.3 mb 0.00 in0.0 mm 0.00 in/hr0.0 mm/hr 0.08 in2.0 mm
04:34 AM 59.9°F15.5°C 57.6°F14.2°C 92% Calm Calm 3.1 mph5.0 kmh 30.07 in1018.3 mb 0.00 in0.0 mm 0.00 in/hr0.0 mm/hr 0.08 in2.0 mm
04:36 AM 59.9°F15.5°C 57.6°F14.2°C 92% Calm Calm -- 30.07 in1018.3 mb 0.00 in0.0 mm 0.00 in/hr0.0 mm/hr 0.08 in2.0 mm
04:38 AM 59.9°F15.5°C 57.6°F14.2°C 92% Calm Calm -- 30.07 in1018.3 mb 0.00 in0.0 mm 0.00 in/hr0.0 mm/hr 0.08 in2.0 mm
04:40 AM 59.9°F15.5°C 57.6°F14.2°C 92% Calm Calm -- 30.07 in1018.3 mb 0.00 in0.0 mm 0.00 in/hr0.0 mm/hr 0.08 in2.0 mm
04:42 AM 59.9°F15.5°C 57.6°F14.2°C 92% Calm Calm -- 30.07 in1018.3 mb 0.00 in0.0 mm 0.00 in/hr0.0 mm/hr 0.08 in2.0 mm
04:44 AM 59.9°F15.5°C 57.6°F14.2°C 92% Calm Calm -- 30.07 in1018.3 mb 0.00 in0.0 mm 0.00 in/hr0.0 mm/hr 0.08 in2.0 mm
04:46 AM 59.9°F15.5°C 57.6°F14.2°C 92% Calm Calm -- 30.07 in1018.3 mb 0.00 in0.0 mm 0.00 in/hr0.0 mm/hr 0.08 in2.0 mm
04:48 AM 59.9°F15.5°C 57.6°F14.2°C 92% Calm Calm -- 30.06 in1017.9 mb 0.00 in0.0 mm 0.00 in/hr0.0 mm/hr 0.08 in2.0 mm
04:50 AM 59.9°F15.5°C 57.6°F14.2°C 92% Calm Calm -- 30.06 in1017.9 mb 0.00 in0.0 mm 0.00 in/hr0.0 mm/hr 0.08 in2.0 mm
04:52 AM 59.9°F15.5°C 57.6°F14.2°C 92% Calm Calm -- 30.07 in1018.3 mb 0.00 in0.0 mm 0.00 in/hr0.0 mm/hr 0.08 in2.0 mm
04:54 AM 59.9°F15.5°C 57.6°F14.2°C 92% Calm Calm -- 30.07 in1018.3 mb 0.00 in0.0 mm 0.00 in/hr0.0 mm/hr 0.08 in2.0 mm
04:56 AM 59.9°F15.5°C 57.6°F14.2°C 92% Calm Calm -- 30.07 in1018.3 mb 0.00 in0.0 mm 0.00 in/hr0.0 mm/hr 0.08 in2.0 mm
04:58 AM 59.7°F15.4°C 57.4°F14.1°C 92% Calm Calm -- 30.07 in1018.3 mb 0.00 in0.0 mm 0.00 in/hr0.0 mm/hr 0.08 in2.0 mm
05:00 AM 59.7°F15.4°C 57.4°F14.1°C 92% Calm Calm -- 30.06 in1017.9 mb 0.00 in0.0 mm 0.00 in/hr0.0 mm/hr 0.08 in2.0 mm
05:02 AM 59.7°F15.4°C 57.4°F14.1°C 92% Calm Calm -- 30.07 in1018.3 mb 0.00 in0.0 mm 0.00 in/hr0.0 mm/hr 0.08 in2.0 mm
05:04 AM 59.7°F15.4°C 57.4°F14.1°C 92% Calm Calm -- 30.07 in1018.3 mb 0.00 in0.0 mm 0.00 in/hr0.0 mm/hr 0.08 in2.0 mm
05:06 AM 59.7°F15.4°C 57.4°F14.1°C 92% Calm Calm -- 30.07 in1018.3 mb 0.00 in0.0 mm 0.00 in/hr0.0 mm/hr 0.08 in2.0 mm
05:08 AM 59.7°F15.4°C 57.4°F14.1°C 92% Calm Calm -- 30.07 in1018.3 mb 0.00 in0.0 mm 0.00 in/hr0.0 mm/hr 0.08 in2.0 mm
05:10 AM 59.7°F15.4°C 57.4°F14.1°C 92% Calm Calm -- 30.06 in1017.9 mb 0.00 in0.0 mm 0.00 in/hr0.0 mm/hr 0.08 in2.0 mm
05:12 AM 59.7°F15.4°C 57.4°F14.1°C 92% Calm Calm -- 30.07 in1018.3 mb 0.00 in0.0 mm 0.00 in/hr0.0 mm/hr 0.08 in2.0 mm
05:14 AM 59.7°F15.4°C 57.4°F14.1°C 92% Calm Calm -- 30.07 in1018.3 mb 0.00 in0.0 mm 0.00 in/hr0.0 mm/hr 0.08 in2.0 mm
05:16 AM 59.7°F15.4°C 57.4°F14.1°C 92% Calm Calm -- 30.07 in1018.3 mb 0.00 in0.0 mm 0.00 in/hr0.0 mm/hr 0.08 in2.0 mm
05:18 AM 59.7°F15.4°C 57.4°F14.1°C 92% Calm Calm -- 30.07 in1018.3 mb 0.00 in0.0 mm 0.00 in/hr0.0 mm/hr 0.08 in2.0 mm
05:20 AM 59.7°F15.4°C 57.4°F14.1°C 92% Calm Calm -- 30.07 in1018.3 mb 0.00 in0.0 mm 0.00 in/hr0.0 mm/hr 0.08 in2.0 mm
05:22 AM 59.7°F15.4°C 57.4°F14.1°C 92% Calm Calm -- 30.07 in1018.3 mb 0.00 in0.0 mm 0.00 in/hr0.0 mm/hr 0.08 in2.0 mm
05:24 AM 59.7°F15.4°C 57.4°F14.1°C 92% Calm Calm -- 30.07 in1018.3 mb 0.00 in0.0 mm 0.00 in/hr0.0 mm/hr 0.08 in2.0 mm
05:26 AM 59.7°F15.4°C 57.4°F14.1°C 92% Calm Calm -- 30.07 in1018.3 mb 0.00 in0.0 mm 0.00 in/hr0.0 mm/hr 0.08 in2.0 mm
05:28 AM 59.7°F15.4°C 57.4°F14.1°C 92% Calm Calm -- 30.07 in1018.3 mb 0.00 in0.0 mm 0.00 in/hr0.0 mm/hr 0.08 in2.0 mm
05:30 AM 59.7°F15.4°C 57.4°F14.1°C 92% Calm Calm -- 30.07 in1018.3 mb 0.00 in0.0 mm 0.00 in/hr0.0 mm/hr 0.08 in2.0 mm
05:32 AM 59.7°F15.4°C 57.4°F14.1°C 92% Calm Calm -- 30.07 in1018.3 mb 0.00 in0.0 mm 0.00 in/hr0.0 mm/hr 0.08 in2.0 mm
05:34 AM 59.7°F15.4°C 57.4°F14.1°C 92% Calm Calm -- 30.07 in1018.3 mb 0.00 in0.0 mm 0.00 in/hr0.0 mm/hr 0.08 in2.0 mm
05:36 AM 59.5°F15.3°C 57.2°F14.0°C 92% Calm Calm -- 30.07 in1018.3 mb 0.00 in0.0 mm 0.00 in/hr0.0 mm/hr 0.08 in2.0 mm
05:38 AM 59.5°F15.3°C 57.2°F14.0°C 92% Calm Calm -- 30.07 in1018.3 mb 0.00 in0.0 mm 0.00 in/hr0.0 mm/hr 0.08 in2.0 mm
05:40 AM 59.5°F15.3°C 57.2°F14.0°C 92% Calm Calm -- 30.07 in1018.3 mb 0.00 in0.0 mm 0.00 in/hr0.0 mm/hr 0.08 in2.0 mm
05:42 AM 59.5°F15.3°C 57.2°F14.0°C 92% Calm Calm -- 30.07 in1018.3 mb 0.00 in0.0 mm 0.00 in/hr0.0 mm/hr 0.08 in2.0 mm
05:44 AM 59.5°F15.3°C 57.2°F14.0°C 92% Calm Calm -- 30.07 in1018.3 mb 0.00 in0.0 mm 0.00 in/hr0.0 mm/hr 0.08 in2.0 mm
05:46 AM 59.5°F15.3°C 57.2°F14.0°C 92% Calm Calm -- 30.07 in1018.3 mb 0.00 in0.0 mm 0.00 in/hr0.0 mm/hr 0.08 in2.0 mm
05:48 AM 59.5°F15.3°C 57.2°F14.0°C 92% Calm Calm -- 30.07 in1018.3 mb 0.00 in0.0 mm 0.00 in/hr0.0 mm/hr 0.08 in2.0 mm
05:50 AM 59.5°F15.3°C 57.2°F14.0°C 92% Calm Calm -- 30.07 in1018.3 mb 0.00 in0.0 mm 0.00 in/hr0.0 mm/hr 0.08 in2.0 mm
05:52 AM 59.5°F15.3°C 57.2°F14.0°C 92% Calm Calm -- 30.06 in1017.9 mb 0.00 in0.0 mm 0.00 in/hr0.0 mm/hr 0.08 in2.0 mm
05:54 AM 59.5°F15.3°C 57.2°F14.0°C 92% Calm Calm -- 30.06 in1017.9 mb 0.00 in0.0 mm 0.00 in/hr0.0 mm/hr 0.08 in2.0 mm
05:56 AM 59.5°F15.3°C 57.2°F14.0°C 92% Calm Calm -- 30.07 in1018.3 mb 0.00 in0.0 mm 0.00 in/hr0.0 mm/hr 0.08 in2.0 mm
05:58 AM 59.5°F15.3°C 57.2°F14.0°C 92% Calm Calm -- 30.07 in1018.3 mb 0.00 in0.0 mm 0.00 in/hr0.0 mm/hr 0.08 in2.0 mm
06:00 AM 59.5°F15.3°C 57.2°F14.0°C 92% Calm Calm -- 30.07 in1018.3 mb 0.00 in0.0 mm 0.00 in/hr0.0 mm/hr 0.08 in2.0 mm
06:02 AM 59.5°F15.3°C 57.2°F14.0°C 92% Calm Calm -- 30.07 in1018.3 mb 0.00 in0.0 mm 0.00 in/hr0.0 mm/hr 0.08 in2.0 mm
06:04 AM 59.5°F15.3°C 57.2°F14.0°C 92% Calm Calm -- 30.07 in1018.3 mb 0.00 in0.0 mm 0.00 in/hr0.0 mm/hr 0.08 in2.0 mm
06:06 AM 59.5°F15.3°C 57.2°F14.0°C 92% Calm Calm -- 30.07 in1018.3 mb 0.00 in0.0 mm 0.00 in/hr0.0 mm/hr 0.08 in2.0 mm
06:08 AM 59.5°F15.3°C 57.2°F14.0°C 92% Calm Calm -- 30.07 in1018.3 mb 0.00 in0.0 mm 0.00 in/hr0.0 mm/hr 0.08 in2.0 mm
06:10 AM 59.7°F15.4°C 57.4°F14.1°C 92% Calm Calm -- 30.07 in1018.3 mb 0.00 in0.0 mm 0.00 in/hr0.0 mm/hr 0.08 in2.0 mm
06:12 AM 59.5°F15.3°C 57.2°F14.0°C 92% Calm Calm -- 30.07 in1018.3 mb 0.00 in0.0 mm 0.00 in/hr0.0 mm/hr 0.08 in2.0 mm
06:14 AM 59.5°F15.3°C 57.2°F14.0°C 92% Calm Calm -- 30.07 in1018.3 mb 0.00 in0.0 mm 0.00 in/hr0.0 mm/hr 0.08 in2.0 mm
06:16 AM 59.5°F15.3°C 57.2°F14.0°C 92% Calm Calm -- 30.07 in1018.3 mb 0.00 in0.0 mm 0.00 in/hr0.0 mm/hr 0.08 in2.0 mm
06:18 AM 59.7°F15.4°C 57.4°F14.1°C 92% Calm Calm -- 30.07 in1018.3 mb 0.00 in0.0 mm 0.00 in/hr0.0 mm/hr 0.08 in2.0 mm
06:20 AM 59.5°F15.3°C 57.2°F14.0°C 92% Calm Calm -- 30.07 in1018.3 mb 0.00 in0.0 mm 0.00 in/hr0.0 mm/hr 0.08 in2.0 mm
06:22 AM 59.5°F15.3°C 57.2°F14.0°C 92% Calm Calm -- 30.07 in1018.3 mb 0.00 in0.0 mm 0.00 in/hr0.0 mm/hr 0.08 in2.0 mm
06:24 AM 59.5°F15.3°C 57.2°F14.0°C 92% Calm Calm -- 30.07 in1018.3 mb 0.00 in0.0 mm 0.00 in/hr0.0 mm/hr 0.08 in2.0 mm
06:26 AM 59.5°F15.3°C 57.2°F14.0°C 92% Calm Calm -- 30.07 in1018.3 mb 0.00 in0.0 mm 0.00 in/hr0.0 mm/hr 0.08 in2.0 mm
06:28 AM 59.5°F15.3°C 57.2°F14.0°C 92% Calm Calm -- 30.07 in1018.3 mb 0.00 in0.0 mm 0.00 in/hr0.0 mm/hr 0.08 in2.0 mm
06:30 AM 59.5°F15.3°C 57.2°F14.0°C 92% Calm Calm -- 30.07 in1018.3 mb 0.00 in0.0 mm 0.00 in/hr0.0 mm/hr 0.08 in2.0 mm
06:32 AM 59.5°F15.3°C 57.2°F14.0°C 92% Calm Calm -- 30.07 in1018.3 mb 0.00 in0.0 mm 0.00 in/hr0.0 mm/hr 0.08 in2.0 mm
06:34 AM 59.5°F15.3°C 57.2°F14.0°C 92% Calm Calm -- 30.07 in1018.3 mb 0.00 in0.0 mm 0.00 in/hr0.0 mm/hr 0.08 in2.0 mm
06:36 AM 59.5°F15.3°C 57.2°F14.0°C 92% Calm Calm -- 30.07 in1018.3 mb 0.00 in0.0 mm 0.00 in/hr0.0 mm/hr 0.08 in2.0 mm
06:38 AM 59.5°F15.3°C 57.2°F14.0°C 92% Calm Calm -- 30.07 in1018.3 mb 0.00 in0.0 mm 0.00 in/hr0.0 mm/hr 0.08 in2.0 mm
06:40 AM 59.5°F15.3°C 57.2°F14.0°C 92% Calm Calm -- 30.07 in1018.3 mb 0.00 in0.0 mm 0.00 in/hr0.0 mm/hr 0.08 in2.0 mm
06:42 AM 59.5°F15.3°C 57.2°F14.0°C 92% Calm Calm -- 30.08 in1018.6 mb 0.00 in0.0 mm 0.00 in/hr0.0 mm/hr 0.08 in2.0 mm
06:44 AM 59.5°F15.3°C 57.2°F14.0°C 92% Calm Calm -- 30.08 in1018.6 mb 0.00 in0.0 mm 0.00 in/hr0.0 mm/hr 0.08 in2.0 mm
06:46 AM 59.5°F15.3°C 57.2°F14.0°C 92% Calm Calm -- 30.07 in1018.3 mb 0.00 in0.0 mm 0.00 in/hr0.0 mm/hr 0.08 in2.0 mm
06:48 AM 59.5°F15.3°C 57.2°F14.0°C 92% Calm Calm -- 30.07 in1018.3 mb 0.00 in0.0 mm 0.00 in/hr0.0 mm/hr 0.08 in2.0 mm
06:50 AM 59.5°F15.3°C 57.2°F14.0°C 92% Calm Calm -- 30.07 in1018.3 mb 0.00 in0.0 mm 0.00 in/hr0.0 mm/hr 0.08 in2.0 mm
06:52 AM 59.5°F15.3°C 57.2°F14.0°C 92% Calm Calm -- 30.07 in1018.3 mb 0.00 in0.0 mm 0.00 in/hr0.0 mm/hr 0.08 in2.0 mm
06:54 AM 59.5°F15.3°C 57.2°F14.0°C 92% Calm Calm -- 30.07 in1018.3 mb 0.00 in0.0 mm 0.00 in/hr0.0 mm/hr 0.08 in2.0 mm
06:56 AM 59.5°F15.3°C 57.2°F14.0°C 92% Calm Calm -- 30.07 in1018.3 mb 0.00 in0.0 mm 0.00 in/hr0.0 mm/hr 0.08 in2.0 mm
06:58 AM 59.5°F15.3°C 57.2°F14.0°C 92% Calm Calm -- 30.07 in1018.3 mb 0.00 in0.0 mm 0.00 in/hr0.0 mm/hr 0.08 in2.0 mm
07:00 AM 59.5°F15.3°C 57.2°F14.0°C 92% Calm Calm -- 30.07 in1018.3 mb 0.00 in0.0 mm 0.00 in/hr0.0 mm/hr 0.08 in2.0 mm
07:02 AM 59.5°F15.3°C 57.2°F14.0°C 92% Calm Calm -- 30.07 in1018.3 mb 0.00 in0.0 mm 0.00 in/hr0.0 mm/hr 0.08 in2.0 mm
07:04 AM 59.5°F15.3°C 57.2°F14.0°C 92% Calm Calm -- 30.07 in1018.3 mb 0.00 in0.0 mm 0.00 in/hr0.0 mm/hr 0.08 in2.0 mm
07:06 AM 59.5°F15.3°C 57.2°F14.0°C 92% Calm Calm -- 30.07 in1018.3 mb 0.00 in0.0 mm 0.00 in/hr0.0 mm/hr 0.08 in2.0 mm
07:08 AM 59.5°F15.3°C 57.2°F14.0°C 92% Calm Calm -- 30.08 in1018.6 mb 0.00 in0.0 mm 0.00 in/hr0.0 mm/hr 0.08 in2.0 mm
07:10 AM 59.5°F15.3°C 57.2°F14.0°C 92% Calm Calm -- 30.08 in1018.6 mb 0.00 in0.0 mm 0.00 in/hr0.0 mm/hr 0.08 in2.0 mm
07:12 AM 59.5°F15.3°C 57.2°F14.0°C 92% Calm Calm -- 30.08 in1018.6 mb 0.00 in0.0 mm 0.00 in/hr0.0 mm/hr 0.08 in2.0 mm
07:14 AM 59.5°F15.3°C 57.2°F14.0°C 92% Calm Calm -- 30.08 in1018.6 mb 0.00 in0.0 mm 0.00 in/hr0.0 mm/hr 0.08 in2.0 mm
07:16 AM 59.5°F15.3°C 57.2°F14.0°C 92% Calm Calm -- 30.08 in1018.6 mb 0.00 in0.0 mm 0.00 in/hr0.0 mm/hr 0.08 in2.0 mm
07:18 AM 59.5°F15.3°C 57.2°F14.0°C 92% Calm Calm -- 30.08 in1018.6 mb 0.00 in0.0 mm 0.00 in/hr0.0 mm/hr 0.08 in2.0 mm
07:20 AM 59.5°F15.3°C 57.2°F14.0°C 92% Calm Calm -- 30.08 in1018.6 mb 0.00 in0.0 mm 0.00 in/hr0.0 mm/hr 0.08 in2.0 mm
07:22 AM 59.5°F15.3°C 57.2°F14.0°C 92% Calm Calm -- 30.08 in1018.6 mb 0.00 in0.0 mm 0.00 in/hr0.0 mm/hr 0.08 in2.0 mm
07:24 AM 59.7°F15.4°C 57.4°F14.1°C 92% Calm Calm -- 30.08 in1018.6 mb 0.00 in0.0 mm 0.00 in/hr0.0 mm/hr 0.08 in2.0 mm
07:26 AM 59.7°F15.4°C 57.4°F14.1°C 92% Calm Calm -- 30.08 in1018.6 mb 0.00 in0.0 mm 0.00 in/hr0.0 mm/hr 0.08 in2.0 mm
07:28 AM 59.5°F15.3°C 57.2°F14.0°C 92% Calm Calm -- 30.08 in1018.6 mb 0.00 in0.0 mm 0.00 in/hr0.0 mm/hr 0.08 in2.0 mm
07:30 AM 59.7°F15.4°C 57.4°F14.1°C 92% Calm Calm -- 30.07 in1018.3 mb 0.00 in0.0 mm 0.00 in/hr0.0 mm/hr 0.08 in2.0 mm
07:32 AM 59.7°F15.4°C 57.4°F14.1°C 92% Calm Calm -- 30.08 in1018.6 mb 0.00 in0.0 mm 0.00 in/hr0.0 mm/hr 0.08 in2.0 mm
07:34 AM 59.7°F15.4°C 57.7°F14.3°C 93% Calm Calm -- 30.08 in1018.6 mb 0.00 in0.0 mm 0.00 in/hr0.0 mm/hr 0.08 in2.0 mm
07:36 AM 59.7°F15.4°C 57.4°F14.1°C 92% 1.8 mph SE2.9 kmh SE 1.8 mph2.9 kmh 30.08 in1018.6 mb 0.00 in0.0 mm 0.00 in/hr0.0 mm/hr 0.08 in2.0 mm
07:38 AM 59.7°F15.4°C 57.7°F14.3°C 93% Calm Calm 1.8 mph2.9 kmh 30.08 in1018.6 mb 0.00 in0.0 mm 0.00 in/hr0.0 mm/hr 0.08 in2.0 mm
07:40 AM 59.7°F15.4°C 57.4°F14.1°C 92% Calm Calm 1.8 mph2.9 kmh 30.08 in1018.6 mb 0.00 in0.0 mm 0.00 in/hr0.0 mm/hr 0.08 in2.0 mm
07:42 AM 59.9°F15.5°C 57.9°F14.4°C 93% Calm Calm 1.8 mph2.9 kmh 30.09 in1019.0 mb 0.00 in0.0 mm 0.00 in/hr0.0 mm/hr 0.08 in2.0 mm
07:44 AM 59.9°F15.5°C 57.9°F14.4°C 93% Calm Calm 1.8 mph2.9 kmh 30.09 in1019.0 mb 0.00 in0.0 mm 0.00 in/hr0.0 mm/hr 0.08 in2.0 mm
07:46 AM 59.9°F15.5°C 57.9°F14.4°C 93% Calm Calm 1.8 mph2.9 kmh 30.09 in1019.0 mb 0.00 in0.0 mm 0.00 in/hr0.0 mm/hr 0.08 in2.0 mm
07:48 AM 59.9°F15.5°C 57.9°F14.4°C 93% Calm Calm -- 30.09 in1019.0 mb 0.00 in0.0 mm 0.00 in/hr0.0 mm/hr 0.08 in2.0 mm
07:50 AM 59.9°F15.5°C 57.9°F14.4°C 93% Calm Calm -- 30.09 in1019.0 mb 0.00 in0.0 mm 0.00 in/hr0.0 mm/hr 0.08 in2.0 mm
07:52 AM 59.9°F15.5°C 57.9°F14.4°C 93% Calm Calm -- 30.09 in1019.0 mb 0.00 in0.0 mm 0.00 in/hr0.0 mm/hr 0.08 in2.0 mm
07:54 AM 59.9°F15.5°C 57.9°F14.4°C 93% Calm Calm -- 30.09 in1019.0 mb 0.00 in0.0 mm 0.00 in/hr0.0 mm/hr 0.08 in2.0 mm
07:56 AM 59.9°F15.5°C 57.9°F14.4°C 93% Calm Calm -- 30.09 in1019.0 mb 0.00 in0.0 mm 0.00 in/hr0.0 mm/hr 0.08 in2.0 mm
07:58 AM 60.1°F15.6°C 58.0°F14.4°C 93% Calm Calm -- 30.09 in1019.0 mb 0.00 in0.0 mm 0.00 in/hr0.0 mm/hr 0.08 in2.0 mm
08:00 AM 59.9°F15.5°C 57.9°F14.4°C 93% Calm Calm -- 30.09 in1019.0 mb 0.00 in0.0 mm 0.00 in/hr0.0 mm/hr 0.08 in2.0 mm
08:02 AM 59.9°F15.5°C 57.9°F14.4°C 93% Calm Calm -- 30.09 in1019.0 mb 0.00 in0.0 mm 0.00 in/hr0.0 mm/hr 0.08 in2.0 mm
08:04 AM 60.1°F15.6°C 58.0°F14.4°C 93% Calm Calm -- 30.09 in1019.0 mb 0.00 in0.0 mm 0.00 in/hr0.0 mm/hr 0.08 in2.0 mm
08:06 AM 60.1°F15.6°C 58.0°F14.4°C 93% 2.5 mph SSE4.0 kmh SSE 2.5 mph4.0 kmh 30.09 in1019.0 mb 0.00 in0.0 mm 0.00 in/hr0.0 mm/hr 0.08 in2.0 mm
08:08 AM 60.1°F15.6°C 58.0°F14.4°C 93% Calm Calm 2.5 mph4.0 kmh 30.09 in1019.0 mb 0.00 in0.0 mm 0.00 in/hr0.0 mm/hr 0.08 in2.0 mm
08:10 AM 60.1°F15.6°C 58.0°F14.4°C 93% Calm Calm 2.5 mph4.0 kmh 30.08 in1018.6 mb 0.00 in0.0 mm 0.00 in/hr0.0 mm/hr 0.08 in2.0 mm
08:12 AM 60.1°F15.6°C 58.0°F14.4°C 93% Calm Calm 2.5 mph4.0 kmh 30.08 in1018.6 mb 0.00 in0.0 mm 0.00 in/hr0.0 mm/hr 0.08 in2.0 mm
08:14 AM 60.1°F15.6°C 58.0°F14.4°C 93% Calm Calm 2.5 mph4.0 kmh 30.08 in1018.6 mb 0.00 in0.0 mm 0.00 in/hr0.0 mm/hr 0.08 in2.0 mm
08:16 AM 60.1°F15.6°C 58.0°F14.4°C 93% Calm Calm 2.5 mph4.0 kmh 30.08 in1018.6 mb 0.00 in0.0 mm 0.00 in/hr0.0 mm/hr 0.08 in2.0 mm
08:18 AM 60.1°F15.6°C 58.0°F14.4°C 93% Calm Calm -- 30.08 in1018.6 mb 0.00 in0.0 mm 0.00 in/hr0.0 mm/hr 0.08 in2.0 mm
08:20 AM 60.1°F15.6°C 58.0°F14.4°C 93% Calm Calm -- 30.08 in1018.6 mb 0.00 in0.0 mm 0.00 in/hr0.0 mm/hr 0.08 in2.0 mm
08:22 AM 60.3°F15.7°C 58.2°F14.6°C 93% Calm Calm -- 30.08 in1018.6 mb 0.00 in0.0 mm 0.00 in/hr0.0 mm/hr 0.08 in2.0 mm
08:24 AM 60.3°F15.7°C 58.2°F14.6°C 93% Calm Calm -- 30.08 in1018.6 mb 0.00 in0.0 mm 0.00 in/hr0.0 mm/hr 0.08 in2.0 mm
08:26 AM 60.4°F15.8°C 58.4°F14.7°C 93% Calm Calm -- 30.09 in1019.0 mb 0.00 in0.0 mm 0.00 in/hr0.0 mm/hr 0.08 in2.0 mm
08:28 AM 60.4°F15.8°C 58.4°F14.7°C 93% Calm Calm -- 30.08 in1018.6 mb 0.00 in0.0 mm 0.00 in/hr0.0 mm/hr 0.08 in2.0 mm
08:30 AM 60.4°F15.8°C 58.4°F14.7°C 93% Calm Calm -- 30.08 in1018.6 mb 0.00 in0.0 mm 0.00 in/hr0.0 mm/hr 0.08 in2.0 mm
08:32 AM 60.4°F15.8°C 58.4°F14.7°C 93% Calm Calm -- 30.08 in1018.6 mb 0.00 in0.0 mm 0.00 in/hr0.0 mm/hr 0.08 in2.0 mm
08:34 AM 60.4°F15.8°C 58.4°F14.7°C 93% Calm Calm -- 30.08 in1018.6 mb 0.00 in0.0 mm 0.00 in/hr0.0 mm/hr 0.08 in2.0 mm
08:36 AM 60.6°F15.9°C 58.6°F14.8°C 93% Calm Calm -- 30.09 in1019.0 mb 0.00 in0.0 mm 0.00 in/hr0.0 mm/hr 0.08 in2.0 mm
08:38 AM 60.6°F15.9°C 58.6°F14.8°C 93% 1.3 mph SE2.1 kmh SE 1.3 mph2.1 kmh 30.09 in1019.0 mb 0.00 in0.0 mm 0.00 in/hr0.0 mm/hr 0.08 in2.0 mm
08:40 AM 60.6°F15.9°C 58.6°F14.8°C 93% 1.3 mph SE2.1 kmh SE 1.3 mph2.1 kmh 30.09 in1019.0 mb 0.00 in0.0 mm 0.00 in/hr0.0 mm/hr 0.08 in2.0 mm
08:42 AM 60.6°F15.9°C 58.6°F14.8°C 93% Calm Calm 1.3 mph2.1 kmh 30.09 in1019.0 mb 0.00 in0.0 mm 0.00 in/hr0.0 mm/hr 0.08 in2.0 mm
08:44 AM 60.6°F15.9°C 58.6°F14.8°C 93% Calm Calm 1.3 mph2.1 kmh 30.09 in1019.0 mb 0.00 in0.0 mm 0.00 in/hr0.0 mm/hr 0.08 in2.0 mm
08:46 AM 60.6°F15.9°C 58.6°F14.8°C 93% Calm Calm 1.3 mph2.1 kmh 30.09 in1019.0 mb 0.00 in0.0 mm 0.00 in/hr0.0 mm/hr 0.08 in2.0 mm
08:48 AM 60.6°F15.9°C 58.6°F14.8°C 93% Calm Calm 1.3 mph2.1 kmh 30.09 in1019.0 mb 0.00 in0.0 mm 0.00 in/hr0.0 mm/hr 0.08 in2.0 mm
08:50 AM 60.6°F15.9°C 58.6°F14.8°C 93% Calm Calm 1.3 mph2.1 kmh 30.09 in1019.0 mb 0.00 in0.0 mm 0.00 in/hr0.0 mm/hr 0.08 in2.0 mm
08:52 AM 60.6°F15.9°C 58.6°F14.8°C 93% Calm Calm -- 30.09 in1019.0 mb 0.00 in0.0 mm 0.00 in/hr0.0 mm/hr 0.08 in2.0 mm
08:54 AM 60.8°F16.0°C 58.8°F14.9°C 93% Calm Calm -- 30.09 in1019.0 mb 0.00 in0.0 mm 0.00 in/hr0.0 mm/hr 0.08 in2.0 mm
08:56 AM 61.0°F16.1°C 58.9°F14.9°C 93% Calm Calm -- 30.09 in1019.0 mb 0.00 in0.0 mm 0.00 in/hr0.0 mm/hr 0.08 in2.0 mm
08:58 AM 61.0°F16.1°C 58.9°F14.9°C 93% Calm Calm -- 30.08 in1018.6 mb 0.00 in0.0 mm 0.00 in/hr0.0 mm/hr 0.08 in2.0 mm
09:00 AM 61.0°F16.1°C 58.9°F14.9°C 93% Calm Calm -- 30.08 in1018.6 mb 0.00 in0.0 mm 0.00 in/hr0.0 mm/hr 0.08 in2.0 mm
09:02 AM 61.0°F16.1°C 58.9°F14.9°C 93% Calm Calm -- 30.09 in1019.0 mb 0.00 in0.0 mm 0.00 in/hr0.0 mm/hr 0.08 in2.0 mm
09:04 AM 61.0°F16.1°C 58.6°F14.8°C 92% Calm Calm -- 30.09 in1019.0 mb 0.00 in0.0 mm 0.00 in/hr0.0 mm/hr 0.08 in2.0 mm
09:06 AM 61.0°F16.1°C 58.6°F14.8°C 92% Calm Calm -- 30.08 in1018.6 mb 0.00 in0.0 mm 0.00 in/hr0.0 mm/hr 0.08 in2.0 mm
09:08 AM 61.0°F16.1°C 58.6°F14.8°C 92% Calm Calm -- 30.09 in1019.0 mb 0.00 in0.0 mm 0.00 in/hr0.0 mm/hr 0.08 in2.0 mm
09:10 AM 61.0°F16.1°C 58.6°F14.8°C 92% Calm Calm -- 30.09 in1019.0 mb 0.00 in0.0 mm 0.00 in/hr0.0 mm/hr 0.08 in2.0 mm
09:12 AM 61.2°F16.2°C 58.8°F14.9°C 92% Calm Calm -- 30.09 in1019.0 mb 0.00 in0.0 mm 0.00 in/hr0.0 mm/hr 0.08 in2.0 mm
09:14 AM 61.3°F16.3°C 59.0°F15.0°C 92% Calm Calm -- 30.09 in1019.0 mb 0.00 in0.0 mm 0.00 in/hr0.0 mm/hr 0.08 in2.0 mm
09:16 AM 61.2°F16.2°C 58.8°F14.9°C 92% Calm Calm -- 30.09 in1019.0 mb 0.00 in0.0 mm 0.00 in/hr0.0 mm/hr 0.08 in2.0 mm
09:18 AM 61.2°F16.2°C 58.8°F14.9°C 92% Calm Calm -- 30.08 in1018.6 mb 0.00 in0.0 mm 0.00 in/hr0.0 mm/hr 0.08 in2.0 mm
09:20 AM 61.3°F16.3°C 59.0°F15.0°C 92% Calm Calm -- 30.09 in1019.0 mb 0.00 in0.0 mm 0.00 in/hr0.0 mm/hr 0.08 in2.0 mm
09:22 AM 61.5°F16.4°C 59.2°F15.1°C 92% Calm Calm -- 30.08 in1018.6 mb 0.00 in0.0 mm 0.00 in/hr0.0 mm/hr 0.08 in2.0 mm
09:24 AM 61.5°F16.4°C 59.2°F15.1°C 92% 0.7 mph ESE1.1 kmh ESE 0.7 mph1.1 kmh 30.09 in1019.0 mb 0.00 in0.0 mm 0.00 in/hr0.0 mm/hr 0.08 in2.0 mm
09:26 AM 61.5°F16.4°C 59.2°F15.1°C 92% 0.7 mph ESE1.1 kmh ESE 0.7 mph1.1 kmh 30.09 in1019.0 mb 0.00 in0.0 mm 0.00 in/hr0.0 mm/hr 0.08 in2.0 mm
09:28 AM 61.7°F16.5°C 59.4°F15.2°C 92% Calm Calm 0.7 mph1.1 kmh 30.09 in1019.0 mb 0.00 in0.0 mm 0.00 in/hr0.0 mm/hr 0.08 in2.0 mm
09:30 AM 61.7°F16.5°C 59.4°F15.2°C 92% Calm Calm 0.7 mph1.1 kmh 30.09 in1019.0 mb 0.00 in0.0 mm 0.00 in/hr0.0 mm/hr 0.08 in2.0 mm
09:32 AM 61.9°F16.6°C 59.5°F15.3°C 92% Calm Calm 0.7 mph1.1 kmh 30.09 in1019.0 mb 0.00 in0.0 mm 0.00 in/hr0.0 mm/hr 0.08 in2.0 mm
09:34 AM 61.9°F16.6°C 59.5°F15.3°C 92% Calm Calm 0.7 mph1.1 kmh 30.09 in1019.0 mb 0.00 in0.0 mm 0.00 in/hr0.0 mm/hr 0.08 in2.0 mm
09:36 AM 61.9°F16.6°C 59.5°F15.3°C 92% Calm Calm 0.7 mph1.1 kmh 30.09 in1019.0 mb 0.00 in0.0 mm 0.00 in/hr0.0 mm/hr 0.08 in2.0 mm
09:38 AM 62.1°F16.7°C 59.7°F15.4°C 92% Calm Calm -- 30.09 in1019.0 mb 0.00 in0.0 mm 0.00 in/hr0.0 mm/hr 0.08 in2.0 mm
09:40 AM 61.9°F16.6°C 59.5°F15.3°C 92% Calm Calm -- 30.09 in1019.0 mb 0.00 in0.0 mm 0.00 in/hr0.0 mm/hr 0.08 in2.0 mm
09:42 AM 62.1°F16.7°C 59.7°F15.4°C 92% Calm Calm -- 30.09 in1019.0 mb 0.00 in0.0 mm 0.00 in/hr0.0 mm/hr 0.08 in2.0 mm
09:44 AM 62.1°F16.7°C 59.7°F15.4°C 92% Calm Calm -- 30.09 in1019.0 mb 0.00 in0.0 mm 0.00 in/hr0.0 mm/hr 0.08 in2.0 mm
09:46 AM 62.2°F16.8°C 59.9°F15.5°C 92% Calm Calm -- 30.09 in1019.0 mb 0.00 in0.0 mm 0.00 in/hr0.0 mm/hr 0.08 in2.0 mm
09:48 AM 62.2°F16.8°C 59.9°F15.5°C 92% Calm Calm -- 30.09 in1019.0 mb 0.00 in0.0 mm 0.00 in/hr0.0 mm/hr 0.08 in2.0 mm
09:50 AM 62.4°F16.9°C 60.1°F15.6°C 92% Calm Calm -- 30.09 in1019.0 mb 0.00 in0.0 mm 0.00 in/hr0.0 mm/hr 0.08 in2.0 mm
09:52 AM 62.4°F16.9°C 60.1°F15.6°C 92% Calm Calm -- 30.09 in1019.0 mb 0.00 in0.0 mm 0.00 in/hr0.0 mm/hr 0.08 in2.0 mm
09:54 AM 62.4°F16.9°C 59.8°F15.4°C 91% Calm Calm -- 30.08 in1018.6 mb 0.00 in0.0 mm 0.00 in/hr0.0 mm/hr 0.08 in2.0 mm
09:56 AM 62.6°F17.0°C 59.9°F15.5°C 91% Calm Calm -- 30.09 in1019.0 mb 0.00 in0.0 mm 0.00 in/hr0.0 mm/hr 0.08 in2.0 mm
09:58 AM 62.8°F17.1°C 60.1°F15.6°C 91% Calm Calm -- 30.09 in1019.0 mb 0.00 in0.0 mm 0.00 in/hr0.0 mm/hr 0.08 in2.0 mm
10:00 AM 62.8°F17.1°C 60.4°F15.8°C 92% Calm Calm -- 30.09 in1019.0 mb 0.00 in0.0 mm 0.00 in/hr0.0 mm/hr 0.08 in2.0 mm
10:02 AM 63.1°F17.3°C 60.8°F16.0°C 92% Calm Calm -- 30.08 in1018.6 mb 0.00 in0.0 mm 0.00 in/hr0.0 mm/hr 0.08 in2.0 mm
10:04 AM 63.1°F17.3°C 60.8°F16.0°C 92% Calm Calm -- 30.09 in1019.0 mb 0.00 in0.0 mm 0.00 in/hr0.0 mm/hr 0.08 in2.0 mm
10:06 AM 63.3°F17.4°C 61.0°F16.1°C 92% Calm Calm -- 30.08 in1018.6 mb 0.00 in0.0 mm 0.00 in/hr0.0 mm/hr 0.08 in2.0 mm
10:08 AM 63.7°F17.6°C 61.3°F16.3°C 92% Calm Calm -- 30.08 in1018.6 mb 0.00 in0.0 mm 0.00 in/hr0.0 mm/hr 0.08 in2.0 mm
10:10 AM 63.7°F17.6°C 61.0°F16.1°C 91% 0.9 mph WSW1.4 kmh WSW 0.9 mph1.4 kmh 30.09 in1019.0 mb 0.00 in0.0 mm 0.00 in/hr0.0 mm/hr 0.08 in2.0 mm
10:12 AM 64.0°F17.8°C 61.4°F16.3°C 91% Calm Calm 0.9 mph1.4 kmh 30.09 in1019.0 mb 0.00 in0.0 mm 0.00 in/hr0.0 mm/hr 0.08 in2.0 mm
10:14 AM 64.0°F17.8°C 61.4°F16.3°C 91% Calm Calm 0.9 mph1.4 kmh 30.08 in1018.6 mb 0.00 in0.0 mm 0.00 in/hr0.0 mm/hr 0.08 in2.0 mm
10:16 AM 64.0°F17.8°C 61.4°F16.3°C 91% Calm Calm 0.9 mph1.4 kmh 30.08 in1018.6 mb 0.00 in0.0 mm 0.00 in/hr0.0 mm/hr 0.08 in2.0 mm
10:18 AM 64.2°F17.9°C 61.5°F16.4°C 91% Calm Calm 0.9 mph1.4 kmh 30.08 in1018.6 mb 0.00 in0.0 mm 0.00 in/hr0.0 mm/hr 0.08 in2.0 mm
10:20 AM 64.2°F17.9°C 61.5°F16.4°C 91% 1.8 mph SW2.9 kmh SW 1.8 mph2.9 kmh 30.08 in1018.6 mb 0.00 in0.0 mm 0.00 in/hr0.0 mm/hr 0.08 in2.0 mm
10:22 AM 64.4°F18.0°C 61.4°F16.3°C 90% Calm Calm 1.8 mph2.9 kmh 30.08 in1018.6 mb 0.00 in0.0 mm 0.00 in/hr0.0 mm/hr 0.08 in2.0 mm
10:24 AM 64.4°F18.0°C 61.4°F16.3°C 90% Calm Calm 1.8 mph2.9 kmh 30.08 in1018.6 mb 0.00 in0.0 mm 0.00 in/hr0.0 mm/hr 0.08 in2.0 mm
10:26 AM 64.6°F18.1°C 61.6°F16.4°C 90% Calm Calm 1.8 mph2.9 kmh 30.08 in1018.6 mb 0.00 in0.0 mm 0.00 in/hr0.0 mm/hr 0.08 in2.0 mm
10:28 AM 64.6°F18.1°C 61.6°F16.4°C 90% Calm Calm 1.8 mph2.9 kmh 30.08 in1018.6 mb 0.00 in0.0 mm 0.00 in/hr0.0 mm/hr 0.08 in2.0 mm
10:30 AM 64.6°F18.1°C 61.6°F16.4°C 90% Calm Calm 1.8 mph2.9 kmh 30.07 in1018.3 mb 0.00 in0.0 mm 0.00 in/hr0.0 mm/hr 0.08 in2.0 mm
10:32 AM 64.8°F18.2°C 61.8°F16.6°C 90% Calm Calm -- 30.07 in1018.3 mb 0.00 in0.0 mm 0.00 in/hr0.0 mm/hr 0.08 in2.0 mm
10:34 AM 64.9°F18.3°C 61.9°F16.6°C 90% Calm Calm -- 30.07 in1018.3 mb 0.00 in0.0 mm 0.00 in/hr0.0 mm/hr 0.08 in2.0 mm
10:36 AM 64.9°F18.3°C 61.9°F16.6°C 90% Calm Calm -- 30.07 in1018.3 mb 0.00 in0.0 mm 0.00 in/hr0.0 mm/hr 0.08 in2.0 mm
10:38 AM 64.9°F18.3°C 61.9°F16.6°C 90% Calm Calm -- 30.07 in1018.3 mb 0.00 in0.0 mm 0.00 in/hr0.0 mm/hr 0.08 in2.0 mm
10:40 AM 64.9°F18.3°C 61.9°F16.6°C 90% Calm Calm -- 30.07 in1018.3 mb 0.00 in0.0 mm 0.00 in/hr0.0 mm/hr 0.08 in2.0 mm
10:42 AM 64.9°F18.3°C 61.9°F16.6°C 90% Calm Calm -- 30.06 in1017.9 mb 0.00 in0.0 mm 0.00 in/hr0.0 mm/hr 0.08 in2.0 mm
10:44 AM 64.9°F18.3°C 61.9°F16.6°C 89% Calm Calm -- 30.06 in1017.9 mb 0.00 in0.0 mm 0.00 in/hr0.0 mm/hr 0.08 in2.0 mm
10:46 AM 65.1°F18.4°C 61.8°F16.6°C 89% Calm Calm -- 30.06 in1017.9 mb 0.00 in0.0 mm 0.00 in/hr0.0 mm/hr 0.08 in2.0 mm
10:48 AM 65.1°F18.4°C 61.8°F16.6°C 89% Calm Calm -- 30.06 in1017.9 mb 0.00 in0.0 mm 0.00 in/hr0.0 mm/hr 0.08 in2.0 mm
10:50 AM 65.1°F18.4°C 61.8°F16.6°C 89% Calm Calm -- 30.06 in1017.9 mb 0.00 in0.0 mm 0.00 in/hr0.0 mm/hr 0.08 in2.0 mm
10:52 AM 65.1°F18.4°C 61.8°F16.6°C 89% Calm Calm -- 30.06 in1017.9 mb 0.00 in0.0 mm 0.00 in/hr0.0 mm/hr 0.08 in2.0 mm
10:54 AM 65.1°F18.4°C 61.5°F16.4°C 88% Calm Calm -- 30.06 in1017.9 mb 0.00 in0.0 mm 0.00 in/hr0.0 mm/hr 0.08 in2.0 mm
10:56 AM 65.1°F18.4°C 61.5°F16.4°C 88% Calm Calm -- 30.07 in1018.3 mb 0.00 in0.0 mm 0.00 in/hr0.0 mm/hr 0.08 in2.0 mm
10:58 AM 65.1°F18.4°C 61.5°F16.4°C 88% Calm Calm -- 30.06 in1017.9 mb 0.00 in0.0 mm 0.00 in/hr0.0 mm/hr 0.08 in2.0 mm
11:00 AM 65.1°F18.4°C 61.5°F16.4°C 88% Calm Calm -- 30.06 in1017.9 mb 0.00 in0.0 mm 0.00 in/hr0.0 mm/hr 0.08 in2.0 mm
11:02 AM 65.1°F18.4°C 61.8°F16.6°C 89% Calm Calm -- 30.06 in1017.9 mb 0.00 in0.0 mm 0.00 in/hr0.0 mm/hr 0.08 in2.0 mm
11:04 AM 65.3°F18.5°C 62.0°F16.7°C 89% Calm Calm -- 30.06 in1017.9 mb 0.00 in0.0 mm 0.00 in/hr0.0 mm/hr 0.08 in2.0 mm
11:06 AM 65.5°F18.6°C 62.2°F16.8°C 89% Calm Calm -- 30.06 in1017.9 mb 0.00 in0.0 mm 0.00 in/hr0.0 mm/hr 0.08 in2.0 mm
11:08 AM 65.5°F18.6°C 62.2°F16.8°C 89% Calm Calm -- 30.05 in1017.6 mb 0.00 in0.0 mm 0.00 in/hr0.0 mm/hr 0.08 in2.0 mm
11:10 AM 65.8°F18.8°C 62.5°F16.9°C 89% Calm Calm -- 30.05 in1017.6 mb 0.00 in0.0 mm 0.00 in/hr0.0 mm/hr 0.08 in2.0 mm
11:12 AM 65.8°F18.8°C 62.2°F16.8°C 88% 1.8 mph WSW2.9 kmh WSW 1.8 mph2.9 kmh 30.06 in1017.9 mb 0.00 in0.0 mm 0.00 in/hr0.0 mm/hr 0.08 in2.0 mm
11:14 AM 66.0°F18.9°C 62.4°F16.9°C 88% Calm Calm 1.8 mph2.9 kmh 30.05 in1017.6 mb 0.00 in0.0 mm 0.00 in/hr0.0 mm/hr 0.08 in2.0 mm
11:16 AM 66.0°F18.9°C 62.4°F16.9°C 88% Calm Calm 1.8 mph2.9 kmh 30.05 in1017.6 mb 0.00 in0.0 mm 0.00 in/hr0.0 mm/hr 0.08 in2.0 mm
11:18 AM 66.0°F18.9°C 62.4°F16.9°C 88% Calm Calm 1.8 mph2.9 kmh 30.05 in1017.6 mb 0.00 in0.0 mm 0.00 in/hr0.0 mm/hr 0.08 in2.0 mm
11:20 AM 66.2°F19.0°C 62.5°F16.9°C 88% Calm Calm 1.8 mph2.9 kmh 30.05 in1017.6 mb 0.00 in0.0 mm 0.00 in/hr0.0 mm/hr 0.08 in2.0 mm
11:22 AM 66.6°F19.2°C 62.9°F17.2°C 88% Calm Calm 1.8 mph2.9 kmh 30.04 in1017.3 mb 0.00 in0.0 mm 0.00 in/hr0.0 mm/hr 0.08 in2.0 mm
11:24 AM 66.6°F19.2°C 62.9°F17.2°C 88% Calm Calm -- 30.04 in1017.3 mb 0.00 in0.0 mm 0.00 in/hr0.0 mm/hr 0.08 in2.0 mm
11:26 AM 66.7°F19.3°C 63.1°F17.3°C 88% Calm Calm -- 30.04 in1017.3 mb 0.00 in0.0 mm 0.00 in/hr0.0 mm/hr 0.08 in2.0 mm
11:28 AM 66.7°F19.3°C 63.1°F17.3°C 88% Calm Calm -- 30.04 in1017.3 mb 0.00 in0.0 mm 0.00 in/hr0.0 mm/hr 0.08 in2.0 mm
11:30 AM 66.7°F19.3°C 63.1°F17.3°C 88% Calm Calm -- 30.04 in1017.3 mb 0.00 in0.0 mm 0.00 in/hr0.0 mm/hr 0.08 in2.0 mm
11:32 AM 66.7°F19.3°C 63.1°F17.3°C 88% Calm Calm -- 30.04 in1017.3 mb 0.00 in0.0 mm 0.00 in/hr0.0 mm/hr 0.08 in2.0 mm
11:34 AM 67.1°F19.5°C 63.4°F17.4°C 88% Calm Calm -- 30.04 in1017.3 mb 0.00 in0.0 mm 0.00 in/hr0.0 mm/hr 0.08 in2.0 mm
11:36 AM 67.3°F19.6°C 63.3°F17.4°C 87% Calm Calm -- 30.04 in1017.3 mb 0.00 in0.0 mm 0.00 in/hr0.0 mm/hr 0.08 in2.0 mm
11:38 AM 67.3°F19.6°C 63.3°F17.4°C 87% Calm Calm -- 30.04 in1017.3 mb 0.00 in0.0 mm 0.00 in/hr0.0 mm/hr 0.08 in2.0 mm
11:40 AM 67.5°F19.7°C 63.5°F17.5°C 87% Calm Calm -- 30.04 in1017.3 mb 0.00 in0.0 mm 0.00 in/hr0.0 mm/hr 0.08 in2.0 mm
11:42 AM 67.6°F19.8°C 63.6°F17.6°C 87% Calm Calm -- 30.04 in1017.3 mb 0.00 in0.0 mm 0.00 in/hr0.0 mm/hr 0.08 in2.0 mm
11:44 AM 67.8°F19.9°C 63.8°F17.7°C 87% 3.1 mph SSE5.0 kmh SSE 3.1 mph5.0 kmh 30.03 in1016.9 mb 0.00 in0.0 mm 0.00 in/hr0.0 mm/hr 0.08 in2.0 mm
11:46 AM 67.8°F19.9°C 63.8°F17.7°C 87% Calm Calm 3.1 mph5.0 kmh 30.03 in1016.9 mb 0.00 in0.0 mm 0.00 in/hr0.0 mm/hr 0.08 in2.0 mm
11:48 AM 67.8°F19.9°C 63.8°F17.7°C 87% Calm Calm 3.1 mph5.0 kmh 30.03 in1016.9 mb 0.00 in0.0 mm 0.00 in/hr0.0 mm/hr 0.08 in2.0 mm
11:50 AM 68.0°F20.0°C 64.0°F17.8°C 87% Calm Calm 3.1 mph5.0 kmh 30.03 in1016.9 mb 0.00 in0.0 mm 0.00 in/hr0.0 mm/hr 0.08 in2.0 mm
11:52 AM 68.2°F20.1°C 63.8°F17.7°C 86% 3.1 mph S5.0 kmh S 3.1 mph5.0 kmh 30.03 in1016.9 mb 0.00 in0.0 mm 0.00 in/hr0.0 mm/hr 0.08 in2.0 mm
11:54 AM 68.2°F20.1°C 63.8°F17.7°C 86% Calm Calm 3.1 mph5.0 kmh 30.02 in1016.6 mb 0.00 in0.0 mm 0.00 in/hr0.0 mm/hr 0.08 in2.0 mm
11:56 AM 68.4°F20.2°C 64.0°F17.8°C 86% Calm Calm 3.1 mph5.0 kmh 30.02 in1016.6 mb 0.00 in0.0 mm 0.00 in/hr0.0 mm/hr 0.08 in2.0 mm
11:58 AM 68.5°F20.3°C 64.2°F17.9°C 86% Calm Calm 3.1 mph5.0 kmh 30.02 in1016.6 mb 0.00 in0.0 mm 0.00 in/hr0.0 mm/hr 0.08 in2.0 mm
12:00 PM 68.7°F20.4°C 64.4°F18.0°C 86% Calm Calm 3.1 mph5.0 kmh 30.03 in1016.9 mb 0.00 in0.0 mm 0.00 in/hr0.0 mm/hr 0.08 in2.0 mm
12:02 PM 68.7°F20.4°C 64.4°F18.0°C 86% 3.1 mph E5.0 kmh E 3.1 mph5.0 kmh 30.02 in1016.6 mb 0.00 in0.0 mm 0.00 in/hr0.0 mm/hr 0.08 in2.0 mm
12:04 PM 69.1°F20.6°C 64.7°F18.2°C 86% 2.5 mph E4.0 kmh E 3.1 mph5.0 kmh 30.02 in1016.6 mb 0.00 in0.0 mm 0.00 in/hr0.0 mm/hr 0.08 in2.0 mm
12:06 PM 69.1°F20.6°C 64.7°F18.2°C 86% 3.6 mph E5.8 kmh E 3.6 mph5.8 kmh 30.02 in1016.6 mb 0.00 in0.0 mm 0.00 in/hr0.0 mm/hr 0.08 in2.0 mm
12:08 PM 69.3°F20.7°C 64.9°F18.3°C 86% Calm Calm 3.6 mph5.8 kmh 30.02 in1016.6 mb 0.00 in0.0 mm 0.00 in/hr0.0 mm/hr 0.08 in2.0 mm
12:10 PM 69.4°F20.8°C 64.7°F18.2°C 85% Calm Calm 3.6 mph5.8 kmh 30.02 in1016.6 mb 0.00 in0.0 mm 0.00 in/hr0.0 mm/hr 0.08 in2.0 mm
12:12 PM 69.6°F20.9°C 64.9°F18.3°C 85% Calm Calm 3.6 mph5.8 kmh 30.02 in1016.6 mb 0.00 in0.0 mm 0.00 in/hr0.0 mm/hr 0.08 in2.0 mm
12:14 PM 69.6°F20.9°C 64.9°F18.3°C 85% 4.5 mph E7.2 kmh E 4.5 mph7.2 kmh 30.01 in1016.3 mb 0.00 in0.0 mm 0.00 in/hr0.0 mm/hr 0.08 in2.0 mm
12:16 PM 69.6°F20.9°C 64.9°F18.3°C 85% 4.5 mph E7.2 kmh E 4.5 mph7.2 kmh 30.01 in1016.3 mb 0.00 in0.0 mm 0.00 in/hr0.0 mm/hr 0.08 in2.0 mm
12:18 PM 69.6°F20.9°C 64.6°F18.1°C 84% Calm Calm 4.5 mph7.2 kmh 30.02 in1016.6 mb 0.00 in0.0 mm 0.00 in/hr0.0 mm/hr 0.08 in2.0 mm
12:20 PM 69.6°F20.9°C 64.6°F18.1°C 84% 2.7 mph ESE4.3 kmh ESE 4.5 mph7.2 kmh 30.02 in1016.6 mb 0.00 in0.0 mm 0.00 in/hr0.0 mm/hr 0.08 in2.0 mm
12:22 PM 69.6°F20.9°C 64.6°F18.1°C 84% Calm Calm 4.5 mph7.2 kmh 30.02 in1016.6 mb 0.00 in0.0 mm 0.00 in/hr0.0 mm/hr 0.08 in2.0 mm
12:24 PM 69.8°F21.0°C 64.7°F18.2°C 84% Calm Calm 4.5 mph7.2 kmh 30.01 in1016.3 mb 0.00 in0.0 mm 0.00 in/hr0.0 mm/hr 0.08 in2.0 mm
12:26 PM 70.0°F21.1°C 64.9°F18.3°C 84% 1.1 mph SE1.8 kmh SE 2.7 mph4.3 kmh 30.01 in1016.3 mb 0.00 in0.0 mm 0.00 in/hr0.0 mm/hr 0.08 in2.0 mm
12:28 PM 70.0°F21.1°C 64.9°F18.3°C 84% 1.1 mph SE1.8 kmh SE 2.7 mph4.3 kmh 30.01 in1016.3 mb 0.00 in0.0 mm 0.00 in/hr0.0 mm/hr 0.08 in2.0 mm
12:30 PM 70.0°F21.1°C 64.9°F18.3°C 84% Calm Calm 2.7 mph4.3 kmh 30.01 in1016.3 mb 0.00 in0.0 mm 0.00 in/hr0.0 mm/hr 0.08 in2.0 mm
12:32 PM 70.0°F21.1°C 64.9°F18.3°C 84% Calm Calm 1.1 mph1.8 kmh 30.01 in1016.3 mb 0.00 in0.0 mm 0.00 in/hr0.0 mm/hr 0.08 in2.0 mm
12:34 PM 70.0°F21.1°C 64.9°F18.3°C 84% Calm Calm 1.1 mph1.8 kmh 30.01 in1016.3 mb 0.00 in0.0 mm 0.00 in/hr0.0 mm/hr 0.08 in2.0 mm
12:36 PM 70.0°F21.1°C 64.9°F18.3°C 84% Calm Calm 1.1 mph1.8 kmh 30.01 in1016.3 mb 0.00 in0.0 mm 0.00 in/hr0.0 mm/hr 0.08 in2.0 mm
12:38 PM 70.0°F21.1°C 64.9°F18.3°C 84% Calm Calm 1.1 mph1.8 kmh 30.01 in1016.3 mb 0.00 in0.0 mm 0.00 in/hr0.0 mm/hr 0.08 in2.0 mm
12:40 PM 70.0°F21.1°C 64.9°F18.3°C 84% Calm Calm -- 30.01 in1016.3 mb 0.00 in0.0 mm 0.00 in/hr0.0 mm/hr 0.08 in2.0 mm
12:42 PM 70.0°F21.1°C 64.6°F18.1°C 83% Calm Calm -- 30.01 in1016.3 mb 0.00 in0.0 mm 0.00 in/hr0.0 mm/hr 0.08 in2.0 mm
12:44 PM 70.0°F21.1°C 64.6°F18.1°C 83% Calm Calm -- 30.00 in1015.9 mb 0.00 in0.0 mm 0.00 in/hr0.0 mm/hr 0.08 in2.0 mm
12:46 PM 70.2°F21.2°C 64.8°F18.2°C 83% Calm Calm -- 30.00 in1015.9 mb 0.00 in0.0 mm 0.00 in/hr0.0 mm/hr 0.08 in2.0 mm
12:48 PM 70.2°F21.2°C 64.8°F18.2°C 83% Calm Calm -- 30.00 in1015.9 mb 0.00 in0.0 mm 0.00 in/hr0.0 mm/hr 0.08 in2.0 mm
12:50 PM 70.2°F21.2°C 64.8°F18.2°C 83% Calm Calm -- 30.00 in1015.9 mb 0.00 in0.0 mm 0.00 in/hr0.0 mm/hr 0.08 in2.0 mm
12:52 PM 70.2°F21.2°C 64.8°F18.2°C 83% Calm Calm -- 30.00 in1015.9 mb 0.00 in0.0 mm 0.00 in/hr0.0 mm/hr 0.08 in2.0 mm
12:54 PM 70.3°F21.3°C 64.9°F18.3°C 83% Calm Calm -- 29.99 in1015.6 mb 0.00 in0.0 mm 0.00 in/hr0.0 mm/hr 0.08 in2.0 mm
12:56 PM 70.3°F21.3°C 64.6°F18.1°C 82% 1.6 mph SSE2.6 kmh SSE 1.6 mph2.6 kmh 29.99 in1015.6 mb 0.00 in0.0 mm 0.00 in/hr0.0 mm/hr 0.08 in2.0 mm
12:58 PM 70.3°F21.3°C 64.6°F18.1°C 82% 1.3 mph SE2.1 kmh SE 1.6 mph2.6 kmh 29.99 in1015.6 mb 0.00 in0.0 mm 0.00 in/hr0.0 mm/hr 0.08 in2.0 mm
01:00 PM 70.3°F21.3°C 64.6°F18.1°C 82% 2.7 mph ESE4.3 kmh ESE 2.7 mph4.3 kmh 29.99 in1015.6 mb 0.00 in0.0 mm 0.00 in/hr0.0 mm/hr 0.08 in2.0 mm
01:02 PM 70.3°F21.3°C 64.6°F18.1°C 82% 0.7 mph E1.1 kmh E 2.7 mph4.3 kmh 29.99 in1015.6 mb 0.00 in0.0 mm 0.00 in/hr0.0 mm/hr 0.08 in2.0 mm
01:04 PM 70.2°F21.2°C 64.4°F18.0°C 82% Calm Calm 2.7 mph4.3 kmh 29.99 in1015.6 mb 0.00 in0.0 mm 0.00 in/hr0.0 mm/hr 0.08 in2.0 mm
01:06 PM 70.2°F21.2°C 64.4°F18.0°C 82% Calm Calm 2.7 mph4.3 kmh 29.99 in1015.6 mb 0.00 in0.0 mm 0.00 in/hr0.0 mm/hr 0.08 in2.0 mm
01:08 PM 70.2°F21.2°C 64.4°F18.0°C 82% 0.7 mph E1.1 kmh E 2.7 mph4.3 kmh 29.99 in1015.6 mb 0.00 in0.0 mm 0.00 in/hr0.0 mm/hr 0.08 in2.0 mm
01:10 PM 70.0°F21.1°C 64.2°F17.9°C 82% 2.0 mph ESE3.2 kmh ESE 2.7 mph4.3 kmh 29.99 in1015.6 mb 0.00 in0.0 mm 0.00 in/hr0.0 mm/hr 0.08 in2.0 mm
01:12 PM 70.0°F21.1°C 64.2°F17.9°C 82% Calm Calm 2.0 mph3.2 kmh 29.99 in1015.6 mb 0.00 in0.0 mm 0.00 in/hr0.0 mm/hr 0.08 in2.0 mm
01:14 PM 70.0°F21.1°C 64.2°F17.9°C 82% Calm Calm 2.0 mph3.2 kmh 29.99 in1015.6 mb 0.00 in0.0 mm 0.00 in/hr0.0 mm/hr 0.08 in2.0 mm
01:16 PM 70.2°F21.2°C 64.4°F18.0°C 82% Calm Calm 2.0 mph3.2 kmh 29.99 in1015.6 mb 0.00 in0.0 mm 0.00 in/hr0.0 mm/hr 0.08 in2.0 mm
01:18 PM 70.2°F21.2°C 64.4°F18.0°C 82% Calm Calm 2.0 mph3.2 kmh 29.99 in1015.6 mb 0.00 in0.0 mm 0.00 in/hr0.0 mm/hr 0.08 in2.0 mm
01:20 PM 70.2°F21.2°C 64.4°F18.0°C 82% 1.3 mph E2.1 kmh E 2.0 mph3.2 kmh 29.99 in1015.6 mb 0.00 in0.0 mm 0.00 in/hr0.0 mm/hr 0.08 in2.0 mm
01:22 PM 70.2°F21.2°C 64.1°F17.8°C 81% Calm Calm 1.3 mph2.1 kmh 29.98 in1015.2 mb 0.00 in0.0 mm 0.00 in/hr0.0 mm/hr 0.08 in2.0 mm
01:24 PM 70.3°F21.3°C 64.2°F17.9°C 81% Calm Calm 1.3 mph2.1 kmh 29.98 in1015.2 mb 0.00 in0.0 mm 0.00 in/hr0.0 mm/hr 0.08 in2.0 mm
01:26 PM 70.3°F21.3°C 64.2°F17.9°C 81% Calm Calm 1.3 mph2.1 kmh 29.98 in1015.2 mb 0.00 in0.0 mm 0.00 in/hr0.0 mm/hr 0.08 in2.0 mm
01:28 PM 70.3°F21.3°C 64.2°F17.9°C 81% 3.1 mph NE5.0 kmh NE 3.1 mph5.0 kmh 29.98 in1015.2 mb 0.00 in0.0 mm 0.00 in/hr0.0 mm/hr 0.08 in2.0 mm
01:30 PM 70.3°F21.3°C 64.2°F17.9°C 81% 2.0 mph ENE3.2 kmh ENE 3.1 mph5.0 kmh 29.99 in1015.6 mb 0.00 in0.0 mm 0.00 in/hr0.0 mm/hr 0.08 in2.0 mm
01:32 PM 70.3°F21.3°C 63.9°F17.7°C 80% 2.7 mph E4.3 kmh E 3.1 mph5.0 kmh 29.99 in1015.6 mb 0.00 in0.0 mm 0.00 in/hr0.0 mm/hr 0.08 in2.0 mm
01:34 PM 70.3°F21.3°C 63.9°F17.7°C 80% Calm Calm 3.1 mph5.0 kmh 29.98 in1015.2 mb 0.00 in0.0 mm 0.00 in/hr0.0 mm/hr 0.08 in2.0 mm
01:36 PM 70.3°F21.3°C 63.9°F17.7°C 80% Calm Calm 3.1 mph5.0 kmh 29.97 in1014.9 mb 0.00 in0.0 mm 0.00 in/hr0.0 mm/hr 0.08 in2.0 mm
01:38 PM 70.3°F21.3°C 63.9°F17.7°C 80% Calm Calm 3.1 mph5.0 kmh 29.98 in1015.2 mb 0.00 in0.0 mm 0.00 in/hr0.0 mm/hr 0.08 in2.0 mm
01:40 PM 70.3°F21.3°C 63.9°F17.7°C 80% 4.3 mph E6.9 kmh E 4.3 mph6.9 kmh 29.98 in1015.2 mb 0.00 in0.0 mm 0.00 in/hr0.0 mm/hr 0.08 in2.0 mm
01:42 PM 70.3°F21.3°C 63.5°F17.5°C 79% 4.3 mph SE6.9 kmh SE 4.3 mph6.9 kmh 29.97 in1014.9 mb 0.00 in0.0 mm 0.00 in/hr0.0 mm/hr 0.08 in2.0 mm
01:44 PM 70.3°F21.3°C 63.5°F17.5°C 79% 0.7 mph SE1.1 kmh SE 4.3 mph6.9 kmh 29.97 in1014.9 mb 0.00 in0.0 mm 0.00 in/hr0.0 mm/hr 0.08 in2.0 mm
01:46 PM 70.3°F21.3°C 63.5°F17.5°C 79% 1.3 mph SE2.1 kmh SE 4.3 mph6.9 kmh 29.98 in1015.2 mb 0.00 in0.0 mm 0.00 in/hr0.0 mm/hr 0.08 in2.0 mm
01:48 PM 70.3°F21.3°C 63.5°F17.5°C 79% 1.3 mph ESE2.1 kmh ESE 4.3 mph6.9 kmh 29.98 in1015.2 mb 0.00 in0.0 mm 0.00 in/hr0.0 mm/hr 0.08 in2.0 mm
01:50 PM 70.3°F21.3°C 63.9°F17.7°C 80% 3.1 mph ESE5.0 kmh ESE 4.3 mph6.9 kmh 29.98 in1015.2 mb 0.00 in0.0 mm 0.00 in/hr0.0 mm/hr 0.08 in2.0 mm
01:52 PM 70.3°F21.3°C 63.9°F17.7°C 80% 4.5 mph ENE7.2 kmh ENE 4.5 mph7.2 kmh 29.98 in1015.2 mb 0.00 in0.0 mm 0.00 in/hr0.0 mm/hr 0.08 in2.0 mm
01:54 PM 70.3°F21.3°C 63.5°F17.5°C 79% Calm Calm 4.5 mph7.2 kmh 29.98 in1015.2 mb 0.00 in0.0 mm 0.00 in/hr0.0 mm/hr 0.08 in2.0 mm
01:56 PM 70.2°F21.2°C 63.7°F17.6°C 80% 6.3 mph N10.1 kmh N 6.3 mph10.1 kmh 29.97 in1014.9 mb 0.00 in0.0 mm 0.00 in/hr0.0 mm/hr 0.08 in2.0 mm
01:58 PM 70.0°F21.1°C 63.5°F17.5°C 80% 6.3 mph N10.1 kmh N 6.3 mph10.1 kmh 29.98 in1015.2 mb 0.00 in0.0 mm 0.00 in/hr0.0 mm/hr 0.08 in2.0 mm
02:00 PM 70.0°F21.1°C 63.5°F17.5°C 80% 7.8 mph N12.6 kmh N 7.8 mph12.6 kmh 29.98 in1015.2 mb 0.00 in0.0 mm 0.00 in/hr0.0 mm/hr 0.08 in2.0 mm
02:02 PM 69.8°F21.0°C 63.3°F17.4°C 80% 6.5 mph N10.5 kmh N 7.8 mph12.6 kmh 29.98 in1015.2 mb 0.00 in0.0 mm 0.00 in/hr0.0 mm/hr 0.08 in2.0 mm
02:04 PM 69.6°F20.9°C 63.2°F17.3°C 80% 6.5 mph N10.5 kmh N 7.8 mph12.6 kmh 29.98 in1015.2 mb 0.00 in0.0 mm 0.00 in/hr0.0 mm/hr 0.08 in2.0 mm
02:06 PM 69.4°F20.8°C 63.0°F17.2°C 80% 0.4 mph NNE0.6 kmh NNE 7.8 mph12.6 kmh 29.98 in1015.2 mb 0.00 in0.0 mm 0.00 in/hr0.0 mm/hr 0.08 in2.0 mm
02:08 PM 69.3°F20.7°C 63.2°F17.3°C 81% 0.7 mph NE1.1 kmh NE 7.8 mph12.6 kmh 29.98 in1015.2 mb 0.02 in0.5 mm 0.60 in/hr15.2 mm/hr 0.10 in2.5 mm
02:10 PM 69.1°F20.6°C 63.0°F17.2°C 81% Calm Calm 7.8 mph12.6 kmh 29.98 in1015.2 mb 0.02 in0.5 mm 0.00 in/hr0.0 mm/hr 0.10 in2.5 mm
02:12 PM 68.9°F20.5°C 63.2°F17.3°C 82% 0.7 mph NE1.1 kmh NE 6.5 mph10.5 kmh 29.98 in1015.2 mb 0.02 in0.5 mm 0.00 in/hr0.0 mm/hr 0.10 in2.5 mm
02:14 PM 68.7°F20.4°C 62.7°F17.1°C 81% Calm Calm 6.5 mph10.5 kmh 29.98 in1015.2 mb 0.02 in0.5 mm 0.00 in/hr0.0 mm/hr 0.10 in2.5 mm
02:16 PM 68.7°F20.4°C 62.7°F17.1°C 82% Calm Calm 0.7 mph1.1 kmh 29.97 in1014.9 mb 0.02 in0.5 mm 0.00 in/hr0.0 mm/hr 0.10 in2.5 mm
02:18 PM 68.7°F20.4°C 63.0°F17.2°C 82% Calm Calm 0.7 mph1.1 kmh 29.98 in1015.2 mb 0.02 in0.5 mm 0.00 in/hr0.0 mm/hr 0.10 in2.5 mm
02:20 PM 68.5°F20.3°C 62.8°F17.1°C 82% Calm Calm 0.7 mph1.1 kmh 29.98 in1015.2 mb 0.02 in0.5 mm 0.00 in/hr0.0 mm/hr 0.10 in2.5 mm
02:22 PM 68.4°F20.2°C 62.6°F17.0°C 82% Calm Calm 0.7 mph1.1 kmh 29.98 in1015.2 mb 0.02 in0.5 mm 0.00 in/hr0.0 mm/hr 0.10 in2.5 mm
02:24 PM 68.4°F20.2°C 63.0°F17.2°C 83% Calm Calm -- 29.97 in1014.9 mb 0.02 in0.5 mm 0.00 in/hr0.0 mm/hr 0.10 in2.5 mm
02:26 PM 68.2°F20.1°C 62.8°F17.1°C 83% Calm Calm -- 29.97 in1014.9 mb 0.02 in0.5 mm 0.00 in/hr0.0 mm/hr 0.10 in2.5 mm
02:28 PM 68.4°F20.2°C 63.0°F17.2°C 83% Calm Calm -- 29.98 in1015.2 mb 0.02 in0.5 mm 0.00 in/hr0.0 mm/hr 0.10 in2.5 mm
02:30 PM 68.4°F20.2°C 63.0°F17.2°C 83% Calm Calm -- 29.98 in1015.2 mb 0.02 in0.5 mm 0.00 in/hr0.0 mm/hr 0.10 in2.5 mm
02:32 PM 68.2°F20.1°C 62.8°F17.1°C 83% Calm Calm -- 29.98 in1015.2 mb 0.02 in0.5 mm 0.00 in/hr0.0 mm/hr 0.10 in2.5 mm
02:34 PM 68.2°F20.1°C 62.8°F17.1°C 83% Calm Calm -- 29.98 in1015.2 mb 0.02 in0.5 mm 0.00 in/hr0.0 mm/hr 0.10 in2.5 mm
02:36 PM 68.2°F20.1°C 63.2°F17.3°C 84% Calm Calm -- 29.98 in1015.2 mb 0.02 in0.5 mm 0.00 in/hr0.0 mm/hr 0.10 in2.5 mm
02:38 PM 68.2°F20.1°C 63.2°F17.3°C 84% Calm Calm -- 29.98 in1015.2 mb 0.02 in0.5 mm 0.00 in/hr0.0 mm/hr 0.10 in2.5 mm
02:40 PM 68.2°F20.1°C 63.2°F17.3°C 84% Calm Calm -- 29.98 in1015.2 mb 0.02 in0.5 mm 0.00 in/hr0.0 mm/hr 0.10 in2.5 mm
02:42 PM 68.2°F20.1°C 63.2°F17.3°C 84% Calm Calm -- 29.98 in1015.2 mb 0.02 in0.5 mm 0.00 in/hr0.0 mm/hr 0.10 in2.5 mm
02:44 PM 68.2°F20.1°C 63.2°F17.3°C 84% Calm Calm -- 29.97 in1014.9 mb 0.02 in0.5 mm 0.00 in/hr0.0 mm/hr 0.10 in2.5 mm
02:46 PM 68.2°F20.1°C 63.2°F17.3°C 84% Calm Calm -- 29.97 in1014.9 mb 0.02 in0.5 mm 0.00 in/hr0.0 mm/hr 0.10 in2.5 mm
02:48 PM 68.2°F20.1°C 63.2°F17.3°C 84% Calm Calm -- 29.98 in1015.2 mb 0.02 in0.5 mm 0.00 in/hr0.0 mm/hr 0.10 in2.5 mm
02:50 PM 68.2°F20.1°C 63.5°F17.5°C 85% Calm Calm -- 29.97 in1014.9 mb 0.02 in0.5 mm 0.00 in/hr0.0 mm/hr 0.10 in2.5 mm
02:52 PM 68.2°F20.1°C 63.5°F17.5°C 85% Calm Calm -- 29.98 in1015.2 mb 0.02 in0.5 mm 0.00 in/hr0.0 mm/hr 0.10 in2.5 mm
02:54 PM 68.2°F20.1°C 63.5°F17.5°C 85% Calm Calm -- 29.97 in1014.9 mb 0.02 in0.5 mm 0.00 in/hr0.0 mm/hr 0.10 in2.5 mm
02:56 PM 68.4°F20.2°C 63.7°F17.6°C 85% Calm Calm -- 29.97 in1014.9 mb 0.02 in0.5 mm 0.00 in/hr0.0 mm/hr 0.10 in2.5 mm
02:58 PM 68.2°F20.1°C 63.5°F17.5°C 85% Calm Calm -- 29.97 in1014.9 mb 0.02 in0.5 mm 0.00 in/hr0.0 mm/hr 0.10 in2.5 mm
03:00 PM 68.4°F20.2°C 63.7°F17.6°C 85% Calm Calm -- 29.97 in1014.9 mb 0.02 in0.5 mm 0.00 in/hr0.0 mm/hr 0.10 in2.5 mm
03:02 PM 68.4°F20.2°C 63.7°F17.6°C 85% Calm Calm -- 29.97 in1014.9 mb 0.02 in0.5 mm 0.00 in/hr0.0 mm/hr 0.10 in2.5 mm
03:04 PM 68.4°F20.2°C 63.7°F17.6°C 85% Calm Calm -- 29.97 in1014.9 mb 0.02 in0.5 mm 0.00 in/hr0.0 mm/hr 0.10 in2.5 mm
03:06 PM 68.4°F20.2°C 63.7°F17.6°C 85% Calm Calm -- 29.97 in1014.9 mb 0.02 in0.5 mm 0.00 in/hr0.0 mm/hr 0.10 in2.5 mm
03:08 PM 68.4°F20.2°C 63.7°F17.6°C 85% Calm Calm -- 29.97 in1014.9 mb 0.00 in0.0 mm 0.00 in/hr0.0 mm/hr 0.10 in2.5 mm
03:10 PM 68.4°F20.2°C 63.7°F17.6°C 85% Calm Calm -- 29.97 in1014.9 mb 0.00 in0.0 mm 0.00 in/hr0.0 mm/hr 0.10 in2.5 mm
03:12 PM 68.4°F20.2°C 63.7°F17.6°C 85% Calm Calm -- 29.97 in1014.9 mb 0.00 in0.0 mm 0.00 in/hr0.0 mm/hr 0.10 in2.5 mm
03:14 PM 68.4°F20.2°C 63.7°F17.6°C 85% Calm Calm -- 29.97 in1014.9 mb 0.00 in0.0 mm 0.00 in/hr0.0 mm/hr 0.10 in2.5 mm
03:16 PM 68.4°F20.2°C 63.7°F17.6°C 85% Calm Calm -- 29.97 in1014.9 mb 0.00 in0.0 mm 0.00 in/hr0.0 mm/hr 0.10 in2.5 mm
03:18 PM 68.5°F20.3°C 63.8°F17.7°C 85% Calm Calm -- 29.97 in1014.9 mb 0.00 in0.0 mm 0.00 in/hr0.0 mm/hr 0.10 in2.5 mm
03:20 PM 68.5°F20.3°C 63.8°F17.7°C 85% Calm Calm -- 29.97 in1014.9 mb 0.00 in0.0 mm 0.00 in/hr0.0 mm/hr 0.10 in2.5 mm
03:22 PM 68.4°F20.2°C 63.7°F17.6°C 85% 3.4 mph N5.5 kmh N 3.4 mph5.5 kmh 29.97 in1014.9 mb 0.00 in0.0 mm 0.00 in/hr0.0 mm/hr 0.10 in2.5 mm
03:24 PM 68.5°F20.3°C 63.8°F17.7°C 85% Calm Calm 3.4 mph5.5 kmh 29.97 in1014.9 mb 0.00 in0.0 mm 0.00 in/hr0.0 mm/hr 0.10 in2.5 mm
03:26 PM 68.5°F20.3°C 63.8°F17.7°C 85% Calm Calm 3.4 mph5.5 kmh 29.97 in1014.9 mb 0.00 in0.0 mm 0.00 in/hr0.0 mm/hr 0.10 in2.5 mm
03:28 PM 68.5°F20.3°C 64.2°F17.9°C 86% Calm Calm 3.4 mph5.5 kmh 29.98 in1015.2 mb 0.00 in0.0 mm 0.00 in/hr0.0 mm/hr 0.10 in2.5 mm
03:30 PM 68.5°F20.3°C 63.8°F17.7°C 85% Calm Calm 3.4 mph5.5 kmh 29.97 in1014.9 mb 0.00 in0.0 mm 0.00 in/hr0.0 mm/hr 0.10 in2.5 mm
03:32 PM 68.5°F20.3°C 63.8°F17.7°C 85% Calm Calm 3.4 mph5.5 kmh 29.97 in1014.9 mb 0.00 in0.0 mm 0.00 in/hr0.0 mm/hr 0.10 in2.5 mm
03:34 PM 68.5°F20.3°C 64.2°F17.9°C 86% Calm Calm -- 29.97 in1014.9 mb 0.00 in0.0 mm 0.00 in/hr0.0 mm/hr 0.10 in2.5 mm
03:36 PM 68.5°F20.3°C 64.2°F17.9°C 86% Calm Calm -- 29.97 in1014.9 mb 0.00 in0.0 mm 0.00 in/hr0.0 mm/hr 0.10 in2.5 mm
03:38 PM 68.5°F20.3°C 64.2°F17.9°C 86% 1.1 mph N1.8 kmh N 1.1 mph1.8 kmh 29.98 in1015.2 mb 0.00 in0.0 mm 0.00 in/hr0.0 mm/hr 0.10 in2.5 mm
03:40 PM 68.4°F20.2°C 64.0°F17.8°C 86% Calm Calm 1.1 mph1.8 kmh 29.97 in1014.9 mb 0.00 in0.0 mm 0.00 in/hr0.0 mm/hr 0.10 in2.5 mm
03:42 PM 68.4°F20.2°C 64.0°F17.8°C 86% 0.9 mph N1.4 kmh N 1.1 mph1.8 kmh 29.97 in1014.9 mb 0.00 in0.0 mm 0.00 in/hr0.0 mm/hr 0.10 in2.5 mm
03:44 PM 68.4°F20.2°C 64.0°F17.8°C 86% 3.1 mph NNE5.0 kmh NNE 3.1 mph5.0 kmh 29.98 in1015.2 mb 0.00 in0.0 mm 0.00 in/hr0.0 mm/hr 0.10 in2.5 mm
03:46 PM 68.4°F20.2°C 64.0°F17.8°C 86% 3.1 mph NNE5.0 kmh NNE 3.1 mph5.0 kmh 29.98 in1015.2 mb 0.00 in0.0 mm 0.00 in/hr0.0 mm/hr 0.10 in2.5 mm
03:48 PM 68.4°F20.2°C 64.0°F17.8°C 86% 1.6 mph NE2.6 kmh NE 3.1 mph5.0 kmh 29.98 in1015.2 mb 0.00 in0.0 mm 0.00 in/hr0.0 mm/hr 0.10 in2.5 mm
03:50 PM 68.2°F20.1°C 63.8°F17.7°C 86% Calm Calm 3.1 mph5.0 kmh 29.98 in1015.2 mb 0.04 in1.0 mm 1.20 in/hr30.5 mm/hr 0.14 in3.6 mm
03:52 PM 68.2°F20.1°C 63.8°F17.7°C 86% Calm Calm 3.1 mph5.0 kmh 29.98 in1015.2 mb 0.06 in1.5 mm 0.60 in/hr15.2 mm/hr 0.16 in4.1 mm
03:54 PM 68.2°F20.1°C 63.8°F17.7°C 86% 3.8 mph NNE6.1 kmh NNE 3.8 mph6.1 kmh 29.98 in1015.2 mb 0.06 in1.5 mm 0.00 in/hr0.0 mm/hr 0.16 in4.1 mm
03:56 PM 68.0°F20.0°C 63.7°F17.6°C 86% 3.8 mph NNE6.1 kmh NNE 3.8 mph6.1 kmh 29.98 in1015.2 mb 0.10 in2.5 mm 1.20 in/hr30.5 mm/hr 0.20 in5.1 mm
03:58 PM 67.8°F19.9°C 63.5°F17.5°C 86% Calm Calm 3.8 mph6.1 kmh 29.98 in1015.2 mb 0.10 in2.5 mm 0.00 in/hr0.0 mm/hr 0.20 in5.1 mm
04:00 PM 67.8°F19.9°C 63.5°F17.5°C 86% Calm Calm 3.8 mph6.1 kmh 29.98 in1015.2 mb 0.12 in3.0 mm 0.02 in/hr0.5 mm/hr 0.22 in5.6 mm
04:02 PM 67.6°F19.8°C 63.6°F17.6°C 87% Calm Calm 3.8 mph6.1 kmh 29.99 in1015.6 mb 0.12 in3.0 mm 0.00 in/hr0.0 mm/hr 0.22 in5.6 mm
04:04 PM 67.6°F19.8°C 63.6°F17.6°C 87% Calm Calm 3.8 mph6.1 kmh 29.98 in1015.2 mb 0.12 in3.0 mm 0.00 in/hr0.0 mm/hr 0.22 in5.6 mm
04:06 PM 67.6°F19.8°C 63.6°F17.6°C 87% Calm Calm 3.8 mph6.1 kmh 29.98 in1015.2 mb 0.14 in3.6 mm 0.60 in/hr15.2 mm/hr 0.24 in6.1 mm
04:08 PM 67.3°F19.6°C 62.9°F17.2°C 86% 5.8 mph NNE9.3 kmh NNE 5.8 mph9.3 kmh 29.98 in1015.2 mb 0.16 in4.1 mm 0.60 in/hr15.2 mm/hr 0.26 in6.6 mm
04:10 PM 67.3°F19.6°C 63.3°F17.4°C 87% 1.6 mph NNE2.6 kmh NNE 5.8 mph9.3 kmh 29.98 in1015.2 mb 0.16 in4.1 mm 0.00 in/hr0.0 mm/hr 0.26 in6.6 mm
04:12 PM 67.1°F19.5°C 63.1°F17.3°C 87% Calm Calm 5.8 mph9.3 kmh 29.98 in1015.2 mb 0.16 in4.1 mm 0.00 in/hr0.0 mm/hr 0.26 in6.6 mm
04:14 PM 67.1°F19.5°C 63.1°F17.3°C 87% Calm Calm 5.8 mph9.3 kmh 29.98 in1015.2 mb 0.16 in4.1 mm 0.00 in/hr0.0 mm/hr 0.26 in6.6 mm
04:16 PM 66.9°F19.4°C 62.9°F17.2°C 87% Calm Calm 5.8 mph9.3 kmh 29.98 in1015.2 mb 0.16 in4.1 mm 0.00 in/hr0.0 mm/hr 0.26 in6.6 mm
04:18 PM 66.9°F19.4°C 62.9°F17.2°C 87% Calm Calm 5.8 mph9.3 kmh 29.98 in1015.2 mb 0.16 in4.1 mm 0.00 in/hr0.0 mm/hr 0.26 in6.6 mm
04:20 PM 66.9°F19.4°C 62.9°F17.2°C 87% Calm Calm 1.6 mph2.6 kmh 29.97 in1014.9 mb 0.16 in4.1 mm 0.00 in/hr0.0 mm/hr 0.26 in6.6 mm
04:22 PM 66.7°F19.3°C 62.7°F17.1°C 87% 3.8 mph ESE6.1 kmh ESE 3.8 mph6.1 kmh 29.97 in1014.9 mb 0.16 in4.1 mm 0.00 in/hr0.0 mm/hr 0.26 in6.6 mm
04:24 PM 66.7°F19.3°C 62.7°F17.1°C 87% Calm Calm 3.8 mph6.1 kmh 29.98 in1015.2 mb 0.16 in4.1 mm 0.00 in/hr0.0 mm/hr 0.26 in6.6 mm
04:26 PM 66.7°F19.3°C 62.7°F17.1°C 87% Calm Calm 3.8 mph6.1 kmh 29.98 in1015.2 mb 0.18 in4.6 mm 0.60 in/hr15.2 mm/hr 0.29 in7.4 mm
04:28 PM 66.6°F19.2°C 62.6°F17.0°C 87% 7.4 mph E11.9 kmh E 7.4 mph11.9 kmh 29.98 in1015.2 mb 0.18 in4.6 mm 0.00 in/hr0.0 mm/hr 0.29 in7.4 mm
04:30 PM 66.4°F19.1°C 62.4°F16.9°C 87% 2.9 mph E4.7 kmh E 7.4 mph11.9 kmh 29.98 in1015.2 mb 0.18 in4.6 mm 0.00 in/hr0.0 mm/hr 0.29 in7.4 mm
04:32 PM 66.4°F19.1°C 62.4°F16.9°C 87% 4.7 mph E7.6 kmh E 7.4 mph11.9 kmh 29.98 in1015.2 mb 0.18 in4.6 mm 0.00 in/hr0.0 mm/hr 0.29 in7.4 mm
04:34 PM 66.0°F18.9°C 62.0°F16.7°C 87% Calm Calm 7.4 mph11.9 kmh 29.98 in1015.2 mb 0.20 in5.1 mm 0.60 in/hr15.2 mm/hr 0.31 in7.9 mm
04:36 PM 66.0°F18.9°C 62.0°F16.7°C 87% Calm Calm 7.4 mph11.9 kmh 29.98 in1015.2 mb 0.20 in5.1 mm 0.00 in/hr0.0 mm/hr 0.31 in7.9 mm
04:38 PM 66.0°F18.9°C 62.0°F16.7°C 87% Calm Calm 7.4 mph11.9 kmh 29.98 in1015.2 mb 0.20 in5.1 mm 0.00 in/hr0.0 mm/hr 0.31 in7.9 mm
04:40 PM 66.0°F18.9°C 62.0°F16.7°C 87% Calm Calm 4.7 mph7.6 kmh 29.98 in1015.2 mb 0.20 in5.1 mm 0.00 in/hr0.0 mm/hr 0.31 in7.9 mm
04:42 PM 66.0°F18.9°C 62.0°F16.7°C 87% Calm Calm 4.7 mph7.6 kmh 29.98 in1015.2 mb 0.20 in5.1 mm 0.00 in/hr0.0 mm/hr 0.31 in7.9 mm
04:44 PM 65.8°F18.8°C 61.9°F16.6°C 87% Calm Calm -- 29.98 in1015.2 mb 0.20 in5.1 mm 0.00 in/hr0.0 mm/hr 0.31 in7.9 mm
04:46 PM 65.8°F18.8°C 61.9°F16.6°C 87% Calm Calm -- 29.98 in1015.2 mb 0.20 in5.1 mm 0.00 in/hr0.0 mm/hr 0.31 in7.9 mm
04:48 PM 65.8°F18.8°C 61.9°F16.6°C 87% Calm Calm -- 29.98 in1015.2 mb 0.16 in4.1 mm 0.00 in/hr0.0 mm/hr 0.31 in7.9 mm
04:50 PM 65.8°F18.8°C 61.9°F16.6°C 87% Calm Calm -- 29.98 in1015.2 mb 0.16 in4.1 mm 0.00 in/hr0.0 mm/hr 0.31 in7.9 mm
04:52 PM 65.8°F18.8°C 61.9°F16.6°C 87% Calm Calm -- 29.98 in1015.2 mb 0.14 in3.6 mm 0.00 in/hr0.0 mm/hr 0.31 in7.9 mm
04:54 PM 65.7°F18.7°C 61.7°F16.5°C 87% Calm Calm -- 29.98 in1015.2 mb 0.10 in2.5 mm 0.00 in/hr0.0 mm/hr 0.31 in7.9 mm
04:56 PM 65.7°F18.7°C 61.7°F16.5°C 87% Calm Calm -- 29.97 in1014.9 mb 0.10 in2.5 mm 0.00 in/hr0.0 mm/hr 0.31 in7.9 mm
04:58 PM 65.7°F18.7°C 62.0°F16.7°C 88% Calm Calm -- 29.98 in1015.2 mb 0.10 in2.5 mm 0.00 in/hr0.0 mm/hr 0.31 in7.9 mm
05:00 PM 65.5°F18.6°C 61.5°F16.4°C 87% Calm Calm -- 29.98 in1015.2 mb 0.10 in2.5 mm 0.00 in/hr0.0 mm/hr 0.33 in8.4 mm
05:02 PM 65.5°F18.6°C 61.8°F16.6°C 88% Calm Calm -- 29.97 in1014.9 mb 0.10 in2.5 mm 0.00 in/hr0.0 mm/hr 0.33 in8.4 mm
05:04 PM 65.5°F18.6°C 61.8°F16.6°C 88% Calm Calm -- 29.98 in1015.2 mb 0.10 in2.5 mm 0.00 in/hr0.0 mm/hr 0.33 in8.4 mm
05:06 PM 65.5°F18.6°C 61.8°F16.6°C 88% Calm Calm -- 29.98 in1015.2 mb 0.08 in2.0 mm 0.00 in/hr0.0 mm/hr 0.33 in8.4 mm
05:08 PM 65.3°F18.5°C 61.7°F16.5°C 88% Calm Calm -- 29.98 in1015.2 mb 0.06 in1.5 mm 0.00 in/hr0.0 mm/hr 0.33 in8.4 mm
05:10 PM 65.3°F18.5°C 61.7°F16.5°C 88% Calm Calm -- 29.98 in1015.2 mb 0.06 in1.5 mm 0.00 in/hr0.0 mm/hr 0.33 in8.4 mm
05:12 PM 65.3°F18.5°C 61.7°F16.5°C 88% Calm Calm -- 29.98 in1015.2 mb 0.06 in1.5 mm 0.00 in/hr0.0 mm/hr 0.33 in8.4 mm
05:14 PM 65.3°F18.5°C 61.7°F16.5°C 88% Calm Calm -- 29.98 in1015.2 mb 0.06 in1.5 mm 0.00 in/hr0.0 mm/hr 0.33 in8.4 mm
05:16 PM 65.3°F18.5°C 61.7°F16.5°C 88% Calm Calm -- 29.98 in1015.2 mb 0.06 in1.5 mm 0.00 in/hr0.0 mm/hr 0.33 in8.4 mm
05:18 PM 65.3°F18.5°C 61.7°F16.5°C 88% Calm Calm -- 29.98 in1015.2 mb 0.06 in1.5 mm 0.00 in/hr0.0 mm/hr 0.33 in8.4 mm
05:20 PM 65.3°F18.5°C 61.7°F16.5°C 88% Calm Calm -- 29.98 in1015.2 mb 0.06 in1.5 mm 0.00 in/hr0.0 mm/hr 0.33 in8.4 mm
05:22 PM 65.3°F18.5°C 61.7°F16.5°C 88% Calm Calm -- 29.98 in1015.2 mb 0.06 in1.5 mm 0.00 in/hr0.0 mm/hr 0.33 in8.4 mm
05:24 PM 65.1°F18.4°C 61.8°F16.6°C 89% Calm Calm -- 29.98 in1015.2 mb 0.06 in1.5 mm 0.00 in/hr0.0 mm/hr 0.33 in8.4 mm
05:26 PM 65.3°F18.5°C 62.0°F16.7°C 89% Calm Calm -- 29.98 in1015.2 mb 0.04 in1.0 mm 0.00 in/hr0.0 mm/hr 0.33 in8.4 mm
05:28 PM 65.1°F18.4°C 61.8°F16.6°C 89% Calm Calm -- 29.98 in1015.2 mb 0.04 in1.0 mm 0.00 in/hr0.0 mm/hr 0.33 in8.4 mm
05:30 PM 65.1°F18.4°C 61.5°F16.4°C 88% Calm Calm -- 29.98 in1015.2 mb 0.04 in1.0 mm 0.00 in/hr0.0 mm/hr 0.33 in8.4 mm
05:32 PM 65.1°F18.4°C 61.5°F16.4°C 88% Calm Calm -- 29.98 in1015.2 mb 0.04 in1.0 mm 0.00 in/hr0.0 mm/hr 0.33 in8.4 mm
05:34 PM 65.1°F18.4°C 61.8°F16.6°C 89% Calm Calm -- 29.98 in1015.2 mb 0.02 in0.5 mm 0.00 in/hr0.0 mm/hr 0.33 in8.4 mm
05:36 PM 65.1°F18.4°C 61.8°F16.6°C 89% Calm Calm -- 29.98 in1015.2 mb 0.02 in0.5 mm 0.00 in/hr0.0 mm/hr 0.33 in8.4 mm
05:38 PM 65.1°F18.4°C 61.8°F16.6°C 89% Calm Calm -- 29.98 in1015.2 mb 0.02 in0.5 mm 0.00 in/hr0.0 mm/hr 0.33 in8.4 mm
05:40 PM 65.1°F18.4°C 61.8°F16.6°C 89% Calm Calm -- 29.98 in1015.2 mb 0.02 in0.5 mm 0.00 in/hr0.0 mm/hr 0.33 in8.4 mm
05:42 PM 65.1°F18.4°C 61.8°F16.6°C 89% Calm Calm -- 29.98 in1015.2 mb 0.02 in0.5 mm 0.00 in/hr0.0 mm/hr 0.33 in8.4 mm
05:44 PM 65.1°F18.4°C 61.8°F16.6°C 89% Calm Calm -- 29.98 in1015.2 mb 0.02 in0.5 mm 0.00 in/hr0.0 mm/hr 0.33 in8.4 mm
05:46 PM 65.1°F18.4°C 61.8°F16.6°C 89% Calm Calm -- 29.98 in1015.2 mb 0.02 in0.5 mm 0.00 in/hr0.0 mm/hr 0.33 in8.4 mm
05:48 PM 65.1°F18.4°C 61.8°F16.6°C 89% Calm Calm -- 29.98 in1015.2 mb 0.02 in0.5 mm 0.00 in/hr0.0 mm/hr 0.33 in8.4 mm
05:50 PM 65.1°F18.4°C 61.8°F16.6°C 89% Calm Calm -- 29.98 in1015.2 mb 0.02 in0.5 mm 0.00 in/hr0.0 mm/hr 0.33 in8.4 mm
05:52 PM 65.1°F18.4°C 61.8°F16.6°C 89% Calm Calm -- 29.98 in1015.2 mb 0.02 in0.5 mm 0.00 in/hr0.0 mm/hr 0.33 in8.4 mm
05:54 PM 64.9°F18.3°C 61.6°F16.4°C 89% Calm Calm -- 29.98 in1015.2 mb 0.02 in0.5 mm 0.00 in/hr0.0 mm/hr 0.33 in8.4 mm
05:56 PM 64.9°F18.3°C 61.6°F16.4°C 89% Calm Calm -- 29.98 in1015.2 mb 0.02 in0.5 mm 0.00 in/hr0.0 mm/hr 0.33 in8.4 mm
05:58 PM 64.9°F18.3°C 61.6°F16.4°C 89% Calm Calm -- 29.98 in1015.2 mb 0.02 in0.5 mm 0.00 in/hr0.0 mm/hr 0.33 in8.4 mm
06:00 PM 64.9°F18.3°C 61.6°F16.4°C 89% Calm Calm -- 29.98 in1015.2 mb 0.00 in0.0 mm 0.00 in/hr0.0 mm/hr 0.33 in8.4 mm
06:02 PM 64.9°F18.3°C 61.6°F16.4°C 89% Calm Calm -- 29.97 in1014.9 mb 0.00 in0.0 mm 0.00 in/hr0.0 mm/hr 0.33 in8.4 mm
06:04 PM 65.1°F18.4°C 61.8°F16.6°C 89% Calm Calm -- 29.97 in1014.9 mb 0.00 in0.0 mm 0.00 in/hr0.0 mm/hr 0.33 in8.4 mm
06:06 PM 64.9°F18.3°C 61.6°F16.4°C 89% Calm Calm -- 29.97 in1014.9 mb 0.00 in0.0 mm 0.00 in/hr0.0 mm/hr 0.33 in8.4 mm
06:08 PM 64.9°F18.3°C 61.6°F16.4°C 89% Calm Calm -- 29.97 in1014.9 mb 0.00 in0.0 mm 0.00 in/hr0.0 mm/hr 0.33 in8.4 mm
06:10 PM 64.9°F18.3°C 61.9°F16.6°C 90% Calm Calm -- 29.97 in1014.9 mb 0.00 in0.0 mm 0.00 in/hr0.0 mm/hr 0.33 in8.4 mm
06:12 PM 64.9°F18.3°C 61.9°F16.6°C 90% Calm Calm -- 29.97 in1014.9 mb 0.00 in0.0 mm 0.00 in/hr0.0 mm/hr 0.33 in8.4 mm
06:14 PM 64.9°F18.3°C 61.9°F16.6°C 90% Calm Calm -- 29.97 in1014.9 mb 0.00 in0.0 mm 0.00 in/hr0.0 mm/hr 0.33 in8.4 mm
06:16 PM 64.9°F18.3°C 61.9°F16.6°C 90% Calm Calm -- 29.97 in1014.9 mb 0.00 in0.0 mm 0.00 in/hr0.0 mm/hr 0.33 in8.4 mm
06:18 PM 64.9°F18.3°C 61.9°F16.6°C 90% Calm Calm -- 29.97 in1014.9 mb 0.00 in0.0 mm 0.00 in/hr0.0 mm/hr 0.33 in8.4 mm
06:20 PM 64.9°F18.3°C 61.9°F16.6°C 90% Calm Calm -- 29.97 in1014.9 mb 0.00 in0.0 mm 0.00 in/hr0.0 mm/hr 0.33 in8.4 mm
06:22 PM 64.9°F18.3°C 61.9°F16.6°C 90% Calm Calm -- 29.97 in1014.9 mb 0.00 in0.0 mm 0.00 in/hr0.0 mm/hr 0.33 in8.4 mm
06:24 PM 64.9°F18.3°C 61.9°F16.6°C 90% Calm Calm -- 29.97 in1014.9 mb 0.00 in0.0 mm 0.00 in/hr0.0 mm/hr 0.33 in8.4 mm
06:26 PM 64.9°F18.3°C 61.9°F16.6°C 90% Calm Calm -- 29.98 in1015.2 mb 0.00 in0.0 mm 0.00 in/hr0.0 mm/hr 0.33 in8.4 mm
06:28 PM 64.9°F18.3°C 61.9°F16.6°C 90% Calm Calm -- 29.98 in1015.2 mb 0.00 in0.0 mm 0.00 in/hr0.0 mm/hr 0.33 in8.4 mm
06:30 PM 64.9°F18.3°C 61.9°F16.6°C 90% Calm Calm -- 29.98 in1015.2 mb 0.00 in0.0 mm 0.00 in/hr0.0 mm/hr 0.33 in8.4 mm
06:32 PM 64.8°F18.2°C 61.8°F16.6°C 90% Calm Calm -- 29.98 in1015.2 mb 0.00 in0.0 mm 0.00 in/hr0.0 mm/hr 0.33 in8.4 mm
06:34 PM 64.8°F18.2°C 61.8°F16.6°C 90% Calm Calm -- 29.98 in1015.2 mb 0.00 in0.0 mm 0.00 in/hr0.0 mm/hr 0.33 in8.4 mm
06:36 PM 64.8°F18.2°C 61.8°F16.6°C 90% Calm Calm -- 29.98 in1015.2 mb 0.00 in0.0 mm 0.00 in/hr0.0 mm/hr 0.33 in8.4 mm
06:38 PM 64.8°F18.2°C 61.8°F16.6°C 90% Calm Calm -- 29.98 in1015.2 mb 0.00 in0.0 mm 0.00 in/hr0.0 mm/hr 0.33 in8.4 mm
06:40 PM 64.8°F18.2°C 61.8°F16.6°C 90% Calm Calm -- 29.97 in1014.9 mb 0.00 in0.0 mm 0.00 in/hr0.0 mm/hr 0.33 in8.4 mm
06:42 PM 64.8°F18.2°C 61.8°F16.6°C 90% Calm Calm -- 29.97 in1014.9 mb 0.00 in0.0 mm 0.00 in/hr0.0 mm/hr 0.33 in8.4 mm
06:44 PM 64.8°F18.2°C 61.8°F16.6°C 90% Calm Calm -- 29.97 in1014.9 mb 0.00 in0.0 mm 0.00 in/hr0.0 mm/hr 0.33 in8.4 mm
06:46 PM 64.8°F18.2°C 61.8°F16.6°C 90% Calm Calm -- 29.98 in1015.2 mb 0.00 in0.0 mm 0.00 in/hr0.0 mm/hr 0.33 in8.4 mm
06:48 PM 64.8°F18.2°C 61.8°F16.6°C 90% Calm Calm -- 29.97 in1014.9 mb 0.00 in0.0 mm 0.00 in/hr0.0 mm/hr 0.33 in8.4 mm
06:50 PM 64.8°F18.2°C 61.8°F16.6°C 90% Calm Calm -- 29.98 in1015.2 mb 0.00 in0.0 mm 0.00 in/hr0.0 mm/hr 0.33 in8.4 mm
06:52 PM 64.8°F18.2°C 61.8°F16.6°C 90% Calm Calm -- 29.98 in1015.2 mb 0.00 in0.0 mm 0.00 in/hr0.0 mm/hr 0.33 in8.4 mm
06:54 PM 64.8°F18.2°C 61.8°F16.6°C 90% Calm Calm -- 29.98 in1015.2 mb 0.00 in0.0 mm 0.00 in/hr0.0 mm/hr 0.33 in8.4 mm
06:56 PM 64.8°F18.2°C 61.8°F16.6°C 90% Calm Calm -- 29.98 in1015.2 mb 0.00 in0.0 mm 0.00 in/hr0.0 mm/hr 0.33 in8.4 mm
06:58 PM 64.6°F18.1°C 61.6°F16.4°C 90% Calm Calm -- 29.98 in1015.2 mb 0.00 in0.0 mm 0.00 in/hr0.0 mm/hr 0.33 in8.4 mm
07:00 PM 64.8°F18.2°C 61.8°F16.6°C 90% Calm Calm -- 29.97 in1014.9 mb 0.00 in0.0 mm 0.00 in/hr0.0 mm/hr 0.33 in8.4 mm
07:02 PM 64.6°F18.1°C 61.6°F16.4°C 90% Calm Calm -- 29.97 in1014.9 mb 0.00 in0.0 mm 0.00 in/hr0.0 mm/hr 0.33 in8.4 mm
07:04 PM 64.6°F18.1°C 61.6°F16.4°C 90% Calm Calm -- 29.97 in1014.9 mb 0.00 in0.0 mm 0.00 in/hr0.0 mm/hr 0.33 in8.4 mm
07:06 PM 64.6°F18.1°C 61.9°F16.6°C 91% Calm Calm -- 29.97 in1014.9 mb 0.00 in0.0 mm 0.00 in/hr0.0 mm/hr 0.33 in8.4 mm
07:08 PM 64.6°F18.1°C 61.9°F16.6°C 91% Calm Calm -- 29.97 in1014.9 mb 0.02 in0.5 mm 0.60 in/hr15.2 mm/hr 0.35 in8.9 mm
07:10 PM 64.6°F18.1°C 61.9°F16.6°C 91% 1.1 mph ESE1.8 kmh ESE 1.1 mph1.8 kmh 29.97 in1014.9 mb 0.02 in0.5 mm 0.00 in/hr0.0 mm/hr 0.35 in8.9 mm
07:12 PM 64.6°F18.1°C 61.9°F16.6°C 91% Calm Calm 1.1 mph1.8 kmh 29.97 in1014.9 mb 0.02 in0.5 mm 0.00 in/hr0.0 mm/hr 0.35 in8.9 mm
07:14 PM 64.6°F18.1°C 61.9°F16.6°C 91% Calm Calm 1.1 mph1.8 kmh 29.97 in1014.9 mb 0.02 in0.5 mm 0.00 in/hr0.0 mm/hr 0.35 in8.9 mm
07:16 PM 64.6°F18.1°C 61.9°F16.6°C 91% Calm Calm 1.1 mph1.8 kmh 29.97 in1014.9 mb 0.02 in0.5 mm 0.00 in/hr0.0 mm/hr 0.35 in8.9 mm
07:18 PM 64.6°F18.1°C 61.9°F16.6°C 91% Calm Calm 1.1 mph1.8 kmh 29.97 in1014.9 mb 0.02 in0.5 mm 0.00 in/hr0.0 mm/hr 0.35 in8.9 mm
07:20 PM 64.4°F18.0°C 61.7°F16.5°C 91% Calm Calm 1.1 mph1.8 kmh 29.97 in1014.9 mb 0.02 in0.5 mm 0.00 in/hr0.0 mm/hr 0.35 in8.9 mm
07:22 PM 64.4°F18.0°C 61.7°F16.5°C 91% Calm Calm -- 29.97 in1014.9 mb 0.02 in0.5 mm 0.00 in/hr0.0 mm/hr 0.35 in8.9 mm
07:24 PM 64.2°F17.9°C 61.5°F16.4°C 91% Calm Calm -- 29.97 in1014.9 mb 0.02 in0.5 mm 0.00 in/hr0.0 mm/hr 0.35 in8.9 mm
07:26 PM 64.2°F17.9°C 61.5°F16.4°C 91% Calm Calm -- 29.98 in1015.2 mb 0.02 in0.5 mm 0.00 in/hr0.0 mm/hr 0.35 in8.9 mm
07:28 PM 64.2°F17.9°C 61.5°F16.4°C 91% Calm Calm -- 29.98 in1015.2 mb 0.02 in0.5 mm 0.00 in/hr0.0 mm/hr 0.35 in8.9 mm
07:30 PM 64.2°F17.9°C 61.5°F16.4°C 91% Calm Calm -- 29.98 in1015.2 mb 0.02 in0.5 mm 0.00 in/hr0.0 mm/hr 0.35 in8.9 mm
07:32 PM 64.2°F17.9°C 61.5°F16.4°C 91% Calm Calm -- 29.97 in1014.9 mb 0.02 in0.5 mm 0.00 in/hr0.0 mm/hr 0.35 in8.9 mm
07:34 PM 64.2°F17.9°C 61.5°F16.4°C 91% Calm Calm -- 29.97 in1014.9 mb 0.02 in0.5 mm 0.00 in/hr0.0 mm/hr 0.35 in8.9 mm
07:36 PM 64.2°F17.9°C 61.5°F16.4°C 91% Calm Calm -- 29.97 in1014.9 mb 0.02 in0.5 mm 0.00 in/hr0.0 mm/hr 0.35 in8.9 mm
07:38 PM 64.2°F17.9°C 61.5°F16.4°C 91% Calm Calm -- 29.97 in1014.9 mb 0.02 in0.5 mm 0.00 in/hr0.0 mm/hr 0.35 in8.9 mm
07:40 PM 64.2°F17.9°C 61.5°F16.4°C 91% Calm Calm -- 29.97 in1014.9 mb 0.02 in0.5 mm 0.00 in/hr0.0 mm/hr 0.35 in8.9 mm
07:42 PM 64.2°F17.9°C 61.5°F16.4°C 91% Calm Calm -- 29.97 in1014.9 mb 0.02 in0.5 mm 0.00 in/hr0.0 mm/hr 0.35 in8.9 mm
07:44 PM 64.2°F17.9°C 61.5°F16.4°C 91% Calm Calm -- 29.97 in1014.9 mb 0.02 in0.5 mm 0.00 in/hr0.0 mm/hr 0.35 in8.9 mm
07:46 PM 64.2°F17.9°C 61.5°F16.4°C 92% Calm Calm -- 29.97 in1014.9 mb 0.02 in0.5 mm 0.00 in/hr0.0 mm/hr 0.35 in8.9 mm
07:48 PM 64.2°F17.9°C 61.8°F16.6°C 92% Calm Calm -- 29.97 in1014.9 mb 0.02 in0.5 mm 0.00 in/hr0.0 mm/hr 0.35 in8.9 mm
07:50 PM 64.2°F17.9°C 61.8°F16.6°C 92% Calm Calm -- 29.97 in1014.9 mb 0.02 in0.5 mm 0.00 in/hr0.0 mm/hr 0.35 in8.9 mm
07:52 PM 64.2°F17.9°C 61.5°F16.4°C 91% Calm Calm -- 29.97 in1014.9 mb 0.02 in0.5 mm 0.00 in/hr0.0 mm/hr 0.35 in8.9 mm
07:54 PM 64.2°F17.9°C 61.8°F16.6°C 92% Calm Calm -- 29.97 in1014.9 mb 0.02 in0.5 mm 0.00 in/hr0.0 mm/hr 0.35 in8.9 mm
07:56 PM 64.2°F17.9°C 61.8°F16.6°C 92% Calm Calm -- 29.97 in1014.9 mb 0.02 in0.5 mm 0.00 in/hr0.0 mm/hr 0.35 in8.9 mm
07:58 PM 64.2°F17.9°C 61.8°F16.6°C 92% Calm Calm -- 29.97 in1014.9 mb 0.02 in0.5 mm 0.00 in/hr0.0 mm/hr 0.35 in8.9 mm
08:00 PM 64.0°F17.8°C 61.7°F16.5°C 92% Calm Calm -- 29.97 in1014.9 mb 0.02 in0.5 mm 0.00 in/hr0.0 mm/hr 0.35 in8.9 mm
08:02 PM 64.0°F17.8°C 61.7°F16.5°C 92% Calm Calm -- 29.97 in1014.9 mb 0.02 in0.5 mm 0.00 in/hr0.0 mm/hr 0.35 in8.9 mm
08:04 PM 64.0°F17.8°C 61.7°F16.5°C 92% Calm Calm -- 29.97 in1014.9 mb 0.02 in0.5 mm 0.00 in/hr0.0 mm/hr 0.35 in8.9 mm
08:06 PM 64.0°F17.8°C 61.7°F16.5°C 92% Calm Calm -- 29.97 in1014.9 mb 0.02 in0.5 mm 0.00 in/hr0.0 mm/hr 0.35 in8.9 mm
08:08 PM 64.0°F17.8°C 61.7°F16.5°C 92% Calm Calm -- 29.97 in1014.9 mb 0.02 in0.5 mm 0.00 in/hr0.0 mm/hr 0.37 in9.4 mm
08:10 PM 64.0°F17.8°C 61.7°F16.5°C 92% Calm Calm -- 29.97 in1014.9 mb 0.02 in0.5 mm 0.00 in/hr0.0 mm/hr 0.37 in9.4 mm
08:12 PM 64.0°F17.8°C 61.7°F16.5°C 92% Calm Calm -- 29.97 in1014.9 mb 0.02 in0.5 mm 0.00 in/hr0.0 mm/hr 0.37 in9.4 mm
08:14 PM 64.0°F17.8°C 61.7°F16.5°C 92% Calm Calm -- 29.97 in1014.9 mb 0.02 in0.5 mm 0.00 in/hr0.0 mm/hr 0.37 in9.4 mm
08:16 PM 64.0°F17.8°C 61.7°F16.5°C 92% Calm Calm -- 29.97 in1014.9 mb 0.02 in0.5 mm 0.00 in/hr0.0 mm/hr 0.37 in9.4 mm
08:18 PM 64.0°F17.8°C 61.7°F16.5°C 92% Calm Calm -- 29.97 in1014.9 mb 0.02 in0.5 mm 0.00 in/hr0.0 mm/hr 0.37 in9.4 mm
08:20 PM 64.0°F17.8°C 61.7°F16.5°C 92% Calm Calm -- 29.97 in1014.9 mb 0.02 in0.5 mm 0.00 in/hr0.0 mm/hr 0.37 in9.4 mm
08:22 PM 64.0°F17.8°C 61.7°F16.5°C 92% Calm Calm -- 29.97 in1014.9 mb 0.02 in0.5 mm 0.00 in/hr0.0 mm/hr 0.37 in9.4 mm
08:24 PM 64.0°F17.8°C 61.7°F16.5°C 92% Calm Calm -- 29.97 in1014.9 mb 0.02 in0.5 mm 0.00 in/hr0.0 mm/hr 0.37 in9.4 mm
08:26 PM 64.0°F17.8°C 61.7°F16.5°C 92% Calm Calm -- 29.97 in1014.9 mb 0.02 in0.5 mm 0.00 in/hr0.0 mm/hr 0.37 in9.4 mm
08:28 PM 64.0°F17.8°C 61.7°F16.5°C 92% Calm Calm -- 29.97 in1014.9 mb 0.02 in0.5 mm 0.00 in/hr0.0 mm/hr 0.37 in9.4 mm
08:30 PM 64.0°F17.8°C 61.7°F16.5°C 92% Calm Calm -- 29.97 in1014.9 mb 0.02 in0.5 mm 0.00 in/hr0.0 mm/hr 0.37 in9.4 mm
08:32 PM 64.0°F17.8°C 61.7°F16.5°C 92% Calm Calm -- 29.97 in1014.9 mb 0.02 in0.5 mm 0.00 in/hr0.0 mm/hr 0.37 in9.4 mm
08:34 PM 64.0°F17.8°C 61.7°F16.5°C 92% Calm Calm -- 29.97 in1014.9 mb 0.02 in0.5 mm 0.00 in/hr0.0 mm/hr 0.37 in9.4 mm
08:36 PM 64.0°F17.8°C 61.7°F16.5°C 92% Calm Calm -- 29.96 in1014.6 mb 0.02 in0.5 mm 0.00 in/hr0.0 mm/hr 0.37 in9.4 mm
08:38 PM 64.0°F17.8°C 61.7°F16.5°C 92% Calm Calm -- 29.96 in1014.6 mb 0.02 in0.5 mm 0.00 in/hr0.0 mm/hr 0.37 in9.4 mm
08:40 PM 64.0°F17.8°C 61.7°F16.5°C 92% Calm Calm -- 29.96 in1014.6 mb 0.02 in0.5 mm 0.00 in/hr0.0 mm/hr 0.37 in9.4 mm
08:42 PM 64.0°F17.8°C 61.7°F16.5°C 92% Calm Calm -- 29.96 in1014.6 mb 0.02 in0.5 mm 0.00 in/hr0.0 mm/hr 0.37 in9.4 mm
08:44 PM 64.0°F17.8°C 61.7°F16.5°C 92% Calm Calm -- 29.96 in1014.6 mb 0.02 in0.5 mm 0.00 in/hr0.0 mm/hr 0.37 in9.4 mm
08:46 PM 64.0°F17.8°C 61.7°F16.5°C 92% Calm Calm -- 29.96 in1014.6 mb 0.02 in0.5 mm 0.00 in/hr0.0 mm/hr 0.37 in9.4 mm
08:48 PM 64.0°F17.8°C 61.7°F16.5°C 92% Calm Calm -- 29.95 in1014.2 mb 0.02 in0.5 mm 0.00 in/hr0.0 mm/hr 0.37 in9.4 mm
08:50 PM 64.0°F17.8°C 61.7°F16.5°C 92% Calm Calm -- 29.95 in1014.2 mb 0.02 in0.5 mm 0.00 in/hr0.0 mm/hr 0.37 in9.4 mm
08:52 PM 64.0°F17.8°C 61.7°F16.5°C 92% Calm Calm -- 29.95 in1014.2 mb 0.02 in0.5 mm 0.00 in/hr0.0 mm/hr 0.37 in9.4 mm
08:54 PM 64.0°F17.8°C 61.7°F16.5°C 92% Calm Calm -- 29.95 in1014.2 mb 0.02 in0.5 mm 0.00 in/hr0.0 mm/hr 0.37 in9.4 mm
08:56 PM 64.0°F17.8°C 61.7°F16.5°C 92% Calm Calm -- 29.95 in1014.2 mb 0.02 in0.5 mm 0.00 in/hr0.0 mm/hr 0.37 in9.4 mm
08:58 PM 64.0°F17.8°C 61.7°F16.5°C 92% Calm Calm -- 29.95 in1014.2 mb 0.02 in0.5 mm 0.00 in/hr0.0 mm/hr 0.37 in9.4 mm
09:00 PM 64.0°F17.8°C 61.7°F16.5°C 92% Calm Calm -- 29.95 in1014.2 mb 0.02 in0.5 mm 0.00 in/hr0.0 mm/hr 0.37 in9.4 mm
09:02 PM 64.0°F17.8°C 61.7°F16.5°C 92% Calm Calm -- 29.94 in1013.9 mb 0.02 in0.5 mm 0.00 in/hr0.0 mm/hr 0.37 in9.4 mm
09:04 PM 63.9°F17.7°C 61.5°F16.4°C 92% Calm Calm -- 29.94 in1013.9 mb 0.02 in0.5 mm 0.00 in/hr0.0 mm/hr 0.37 in9.4 mm
09:06 PM 64.0°F17.8°C 61.7°F16.5°C 92% 2.7 mph ESE4.3 kmh ESE 2.7 mph4.3 kmh 29.94 in1013.9 mb 0.02 in0.5 mm 0.00 in/hr0.0 mm/hr 0.37 in9.4 mm
09:08 PM 63.7°F17.6°C 61.3°F16.3°C 92% Calm Calm 2.7 mph4.3 kmh 29.95 in1014.2 mb 0.02 in0.5 mm 0.00 in/hr0.0 mm/hr 0.39 in9.9 mm
09:10 PM 63.7°F17.6°C 61.3°F16.3°C 92% Calm Calm 2.7 mph4.3 kmh 29.95 in1014.2 mb 0.02 in0.5 mm 0.00 in/hr0.0 mm/hr 0.39 in9.9 mm
09:12 PM 63.9°F17.7°C 61.5°F16.4°C 92% Calm Calm 2.7 mph4.3 kmh 29.95 in1014.2 mb 0.02 in0.5 mm 0.00 in/hr0.0 mm/hr 0.39 in9.9 mm
09:14 PM 63.9°F17.7°C 61.5°F16.4°C 92% Calm Calm 2.7 mph4.3 kmh 29.95 in1014.2 mb 0.02 in0.5 mm 0.00 in/hr0.0 mm/hr 0.39 in9.9 mm
09:16 PM 63.7°F17.6°C 61.3°F16.3°C 92% Calm Calm 2.7 mph4.3 kmh 29.96 in1014.6 mb 0.02 in0.5 mm 0.00 in/hr0.0 mm/hr 0.39 in9.9 mm
09:18 PM 63.7°F17.6°C 61.3°F16.3°C 92% Calm Calm -- 29.96 in1014.6 mb 0.02 in0.5 mm 0.00 in/hr0.0 mm/hr 0.39 in9.9 mm
09:20 PM 63.9°F17.7°C 61.5°F16.4°C 92% Calm Calm -- 29.96 in1014.6 mb 0.02 in0.5 mm 0.00 in/hr0.0 mm/hr 0.39 in9.9 mm
09:22 PM 63.9°F17.7°C 61.5°F16.4°C 92% Calm Calm -- 29.96 in1014.6 mb 0.02 in0.5 mm 0.00 in/hr0.0 mm/hr 0.39 in9.9 mm
09:24 PM 63.9°F17.7°C 61.5°F16.4°C 92% Calm Calm -- 29.96 in1014.6 mb 0.02 in0.5 mm 0.00 in/hr0.0 mm/hr 0.39 in9.9 mm
09:26 PM 63.9°F17.7°C 61.5°F16.4°C 92% Calm Calm -- 29.96 in1014.6 mb 0.02 in0.5 mm 0.00 in/hr0.0 mm/hr 0.39 in9.9 mm
09:28 PM 63.9°F17.7°C 61.5°F16.4°C 92% Calm Calm -- 29.97 in1014.9 mb 0.02 in0.5 mm 0.00 in/hr0.0 mm/hr 0.39 in9.9 mm
09:30 PM 63.9°F17.7°C 61.5°F16.4°C 92% Calm Calm -- 29.97 in1014.9 mb 0.02 in0.5 mm 0.00 in/hr0.0 mm/hr 0.39 in9.9 mm
09:32 PM 63.9°F17.7°C 61.5°F16.4°C 92% Calm Calm -- 29.97 in1014.9 mb 0.02 in0.5 mm 0.00 in/hr0.0 mm/hr 0.39 in9.9 mm
09:34 PM 64.0°F17.8°C 61.7°F16.5°C 92% Calm Calm -- 29.97 in1014.9 mb 0.02 in0.5 mm 0.00 in/hr0.0 mm/hr 0.39 in9.9 mm
09:36 PM 64.0°F17.8°C 61.7°F16.5°C 92% Calm Calm -- 29.97 in1014.9 mb 0.02 in0.5 mm 0.00 in/hr0.0 mm/hr 0.39 in9.9 mm
09:38 PM 64.0°F17.8°C 61.7°F16.5°C 92% Calm Calm -- 29.97 in1014.9 mb 0.02 in0.5 mm 0.00 in/hr0.0 mm/hr 0.39 in9.9 mm
09:40 PM 63.9°F17.7°C 61.5°F16.4°C 92% Calm Calm -- 29.97 in1014.9 mb 0.02 in0.5 mm 0.00 in/hr0.0 mm/hr 0.39 in9.9 mm
09:42 PM 63.9°F17.7°C 61.5°F16.4°C 92% Calm Calm -- 29.97 in1014.9 mb 0.02 in0.5 mm 0.00 in/hr0.0 mm/hr 0.39 in9.9 mm
09:44 PM 63.9°F17.7°C 61.5°F16.4°C 92% Calm Calm -- 29.97 in1014.9 mb 0.02 in0.5 mm 0.00 in/hr0.0 mm/hr 0.39 in9.9 mm
09:46 PM 63.9°F17.7°C 61.5°F16.4°C 92% Calm Calm -- 29.97 in1014.9 mb 0.02 in0.5 mm 0.00 in/hr0.0 mm/hr 0.39 in9.9 mm
09:48 PM 63.9°F17.7°C 61.5°F16.4°C 92% Calm Calm -- 29.97 in1014.9 mb 0.02 in0.5 mm 0.00 in/hr0.0 mm/hr 0.39 in9.9 mm
09:50 PM 63.7°F17.6°C 61.3°F16.3°C 92% Calm Calm -- 29.97 in1014.9 mb 0.02 in0.5 mm 0.00 in/hr0.0 mm/hr 0.39 in9.9 mm
09:52 PM 63.7°F17.6°C 61.3°F16.3°C 92% Calm Calm -- 29.97 in1014.9 mb 0.02 in0.5 mm 0.00 in/hr0.0 mm/hr 0.39 in9.9 mm
09:54 PM 63.7°F17.6°C 61.3°F16.3°C 92% Calm Calm -- 29.97 in1014.9 mb 0.02 in0.5 mm 0.00 in/hr0.0 mm/hr 0.39 in9.9 mm
09:56 PM 63.7°F17.6°C 61.3°F16.3°C 92% Calm Calm -- 29.97 in1014.9 mb 0.02 in0.5 mm 0.00 in/hr0.0 mm/hr 0.39 in9.9 mm
09:58 PM 63.7°F17.6°C 61.3°F16.3°C 92% Calm Calm -- 29.97 in1014.9 mb 0.02 in0.5 mm 0.00 in/hr0.0 mm/hr 0.39 in9.9 mm
10:00 PM 63.7°F17.6°C 61.3°F16.3°C 92% Calm Calm -- 29.97 in1014.9 mb 0.02 in0.5 mm 0.00 in/hr0.0 mm/hr 0.39 in9.9 mm
10:02 PM 63.7°F17.6°C 61.3°F16.3°C 92% Calm Calm -- 29.97 in1014.9 mb 0.02 in0.5 mm 0.00 in/hr0.0 mm/hr 0.39 in9.9 mm
10:04 PM 63.7°F17.6°C 61.3°F16.3°C 92% Calm Calm -- 29.97 in1014.9 mb 0.02 in0.5 mm 0.00 in/hr0.0 mm/hr 0.39 in9.9 mm
10:06 PM 63.7°F17.6°C 61.3°F16.3°C 92% Calm Calm -- 29.97 in1014.9 mb 0.02 in0.5 mm 0.00 in/hr0.0 mm/hr 0.39 in9.9 mm
10:08 PM 63.7°F17.6°C 61.3°F16.3°C 92% Calm Calm -- 29.97 in1014.9 mb 0.04 in1.0 mm 0.60 in/hr15.2 mm/hr 0.43 in10.9 mm
10:10 PM 63.7°F17.6°C 61.3°F16.3°C 92% Calm Calm -- 29.97 in1014.9 mb 0.04 in1.0 mm 0.00 in/hr0.0 mm/hr 0.43 in10.9 mm
10:12 PM 63.7°F17.6°C 61.3°F16.3°C 92% Calm Calm -- 29.97 in1014.9 mb 0.04 in1.0 mm 0.00 in/hr0.0 mm/hr 0.43 in10.9 mm
10:14 PM 63.7°F17.6°C 61.3°F16.3°C 92% Calm Calm -- 29.97 in1014.9 mb 0.04 in1.0 mm 0.00 in/hr0.0 mm/hr 0.45 in11.4 mm
10:16 PM 63.7°F17.6°C 61.3°F16.3°C 92% Calm Calm -- 29.97 in1014.9 mb 0.06 in1.5 mm 0.60 in/hr15.2 mm/hr 0.45 in11.4 mm
10:18 PM 63.7°F17.6°C 61.3°F16.3°C 92% Calm Calm -- 29.97 in1014.9 mb 0.08 in2.0 mm 0.60 in/hr15.2 mm/hr 0.47 in11.9 mm
10:20 PM 63.7°F17.6°C 61.3°F16.3°C 92% Calm Calm -- 29.97 in1014.9 mb 0.08 in2.0 mm 0.00 in/hr0.0 mm/hr 0.47 in11.9 mm
10:22 PM 63.7°F17.6°C 61.3°F16.3°C 92% Calm Calm -- 29.97 in1014.9 mb 0.08 in2.0 mm 0.00 in/hr0.0 mm/hr 0.47 in11.9 mm
10:24 PM 63.7°F17.6°C 61.3°F16.3°C 92% Calm Calm -- 29.97 in1014.9 mb 0.08 in2.0 mm 0.00 in/hr0.0 mm/hr 0.47 in11.9 mm
10:26 PM 63.7°F17.6°C 61.3°F16.3°C 92% Calm Calm -- 29.96 in1014.6 mb 0.10 in2.5 mm 0.60 in/hr15.2 mm/hr 0.49 in12.4 mm
10:28 PM 63.7°F17.6°C 61.3°F16.3°C 92% Calm Calm -- 29.96 in1014.6 mb 0.10 in2.5 mm 0.00 in/hr0.0 mm/hr 0.49 in12.4 mm
10:30 PM 63.7°F17.6°C 61.3°F16.3°C 92% Calm Calm -- 29.96 in1014.6 mb 0.10 in2.5 mm 0.00 in/hr0.0 mm/hr 0.49 in12.4 mm
10:32 PM 63.7°F17.6°C 61.3°F16.3°C 92% Calm Calm -- 29.96 in1014.6 mb 0.10 in2.5 mm 0.00 in/hr0.0 mm/hr 0.49 in12.4 mm
10:34 PM 63.7°F17.6°C 61.3°F16.3°C 92% Calm Calm -- 29.96 in1014.6 mb 0.12 in3.0 mm 0.60 in/hr15.2 mm/hr 0.51 in13.0 mm
10:36 PM 63.7°F17.6°C 61.3°F16.3°C 92% Calm Calm -- 29.96 in1014.6 mb 0.12 in3.0 mm 0.00 in/hr0.0 mm/hr 0.51 in13.0 mm
10:38 PM 63.5°F17.5°C 61.1°F16.2°C 92% Calm Calm -- 29.96 in1014.6 mb 0.12 in3.0 mm 0.00 in/hr0.0 mm/hr 0.51 in13.0 mm
10:40 PM 63.5°F17.5°C 61.1°F16.2°C 92% Calm Calm -- 29.96 in1014.6 mb 0.12 in3.0 mm 0.00 in/hr0.0 mm/hr 0.51 in13.0 mm
10:42 PM 63.5°F17.5°C 61.1°F16.2°C 92% Calm Calm -- 29.96 in1014.6 mb 0.14 in3.6 mm 0.60 in/hr15.2 mm/hr 0.53 in13.5 mm
10:44 PM 63.5°F17.5°C 61.1°F16.2°C 92% Calm Calm -- 29.96 in1014.6 mb 0.14 in3.6 mm 0.00 in/hr0.0 mm/hr 0.53 in13.5 mm
10:46 PM 63.5°F17.5°C 61.1°F16.2°C 92% Calm Calm -- 29.96 in1014.6 mb 0.14 in3.6 mm 0.00 in/hr0.0 mm/hr 0.53 in13.5 mm
10:48 PM 63.5°F17.5°C 61.1°F16.2°C 92% Calm Calm -- 29.96 in1014.6 mb 0.14 in3.6 mm 0.00 in/hr0.0 mm/hr 0.53 in13.5 mm
10:50 PM 63.5°F17.5°C 61.1°F16.2°C 92% Calm Calm -- 29.96 in1014.6 mb 0.14 in3.6 mm 0.00 in/hr0.0 mm/hr 0.53 in13.5 mm
10:52 PM 63.5°F17.5°C 61.1°F16.2°C 92% Calm Calm -- 29.96 in1014.6 mb 0.16 in4.1 mm 0.60 in/hr15.2 mm/hr 0.55 in14.0 mm
10:54 PM 63.3°F17.4°C 61.0°F16.1°C 92% Calm Calm -- 29.96 in1014.6 mb 0.16 in4.1 mm 0.00 in/hr0.0 mm/hr 0.55 in14.0 mm
10:56 PM 63.3°F17.4°C 61.0°F16.1°C 92% Calm Calm -- 29.96 in1014.6 mb 0.16 in4.1 mm 0.00 in/hr0.0 mm/hr 0.55 in14.0 mm
10:58 PM 63.3°F17.4°C 61.0°F16.1°C 92% Calm Calm -- 29.96 in1014.6 mb 0.16 in4.1 mm 0.00 in/hr0.0 mm/hr 0.55 in14.0 mm
11:00 PM 63.3°F17.4°C 61.0°F16.1°C 92% Calm Calm -- 29.96 in1014.6 mb 0.16 in4.1 mm 0.00 in/hr0.0 mm/hr 0.55 in14.0 mm
11:02 PM 63.3°F17.4°C 61.0°F16.1°C 92% Calm Calm -- 29.96 in1014.6 mb 0.16 in4.1 mm 0.00 in/hr0.0 mm/hr 0.55 in14.0 mm
11:04 PM 63.3°F17.4°C 61.0°F16.1°C 92% Calm Calm -- 29.96 in1014.6 mb 0.16 in4.1 mm 0.00 in/hr0.0 mm/hr 0.55 in14.0 mm
11:06 PM 63.3°F17.4°C 61.0°F16.1°C 92% Calm Calm -- 29.96 in1014.6 mb 0.16 in4.1 mm 0.00 in/hr0.0 mm/hr 0.55 in14.0 mm
11:08 PM 63.3°F17.4°C 61.0°F16.1°C 92% Calm Calm -- 29.96 in1014.6 mb 0.14 in3.6 mm 0.00 in/hr0.0 mm/hr 0.57 in14.5 mm
11:10 PM 63.3°F17.4°C 61.0°F16.1°C 92% Calm Calm -- 29.96 in1014.6 mb 0.14 in3.6 mm 0.00 in/hr0.0 mm/hr 0.57 in14.5 mm
11:12 PM 63.3°F17.4°C 61.0°F16.1°C 92% Calm Calm -- 29.96 in1014.6 mb 0.14 in3.6 mm 0.00 in/hr0.0 mm/hr 0.57 in14.5 mm
11:14 PM 63.3°F17.4°C 61.0°F16.1°C 92% Calm Calm -- 29.96 in1014.6 mb 0.12 in3.0 mm 0.00 in/hr0.0 mm/hr 0.57 in14.5 mm
11:16 PM 63.3°F17.4°C 61.0°F16.1°C 92% Calm Calm -- 29.96 in1014.6 mb 0.12 in3.0 mm 0.00 in/hr0.0 mm/hr 0.57 in14.5 mm
11:18 PM 63.3°F17.4°C 61.0°F16.1°C 92% Calm Calm -- 29.95 in1014.2 mb 0.10 in2.5 mm 0.00 in/hr0.0 mm/hr 0.57 in14.5 mm
11:20 PM 63.3°F17.4°C 61.0°F16.1°C 92% Calm Calm -- 29.95 in1014.2 mb 0.10 in2.5 mm 0.00 in/hr0.0 mm/hr 0.57 in14.5 mm
11:22 PM 63.3°F17.4°C 61.3°F16.3°C 93% Calm Calm -- 29.95 in1014.2 mb 0.10 in2.5 mm 0.00 in/hr0.0 mm/hr 0.57 in14.5 mm
11:24 PM 63.3°F17.4°C 61.3°F16.3°C 93% Calm Calm -- 29.95 in1014.2 mb 0.08 in2.0 mm 0.00 in/hr0.0 mm/hr 0.57 in14.5 mm
11:26 PM 63.3°F17.4°C 61.3°F16.3°C 93% Calm Calm -- 29.95 in1014.2 mb 0.08 in2.0 mm 0.00 in/hr0.0 mm/hr 0.57 in14.5 mm
11:28 PM 63.3°F17.4°C 61.3°F16.3°C 93% Calm Calm -- 29.95 in1014.2 mb 0.08 in2.0 mm 0.00 in/hr0.0 mm/hr 0.57 in14.5 mm
11:30 PM 63.3°F17.4°C 61.3°F16.3°C 93% Calm Calm -- 29.94 in1013.9 mb 0.08 in2.0 mm 0.00 in/hr0.0 mm/hr 0.57 in14.5 mm
11:32 PM 63.3°F17.4°C 61.3°F16.3°C 93% Calm Calm -- 29.94 in1013.9 mb 0.08 in2.0 mm 0.00 in/hr0.0 mm/hr 0.57 in14.5 mm
11:34 PM 63.1°F17.3°C 61.1°F16.2°C 93% Calm Calm -- 29.94 in1013.9 mb 0.08 in2.0 mm 0.00 in/hr0.0 mm/hr 0.59 in15.0 mm
11:36 PM 63.1°F17.3°C 61.1°F16.2°C 93% Calm Calm -- 29.94 in1013.9 mb 0.08 in2.0 mm 0.00 in/hr0.0 mm/hr 0.59 in15.0 mm
11:38 PM 63.1°F17.3°C 61.1°F16.2°C 93% Calm Calm -- 29.94 in1013.9 mb 0.08 in2.0 mm 0.00 in/hr0.0 mm/hr 0.59 in15.0 mm
11:40 PM 63.1°F17.3°C 61.1°F16.2°C 93% Calm Calm -- 29.94 in1013.9 mb 0.08 in2.0 mm 0.00 in/hr0.0 mm/hr 0.59 in15.0 mm
11:42 PM 63.1°F17.3°C 61.1°F16.2°C 93% Calm Calm -- 29.94 in1013.9 mb 0.06 in1.5 mm 0.00 in/hr0.0 mm/hr 0.59 in15.0 mm
11:44 PM 63.1°F17.3°C 61.1°F16.2°C 93% Calm Calm -- 29.94 in1013.9 mb 0.06 in1.5 mm 0.00 in/hr0.0 mm/hr 0.59 in15.0 mm
11:46 PM 63.1°F17.3°C 61.1°F16.2°C 93% Calm Calm -- 29.94 in1013.9 mb 0.06 in1.5 mm 0.00 in/hr0.0 mm/hr 0.61 in15.5 mm
11:48 PM 63.1°F17.3°C 61.1°F16.2°C 93% Calm Calm -- 29.94 in1013.9 mb 0.08 in2.0 mm 0.60 in/hr15.2 mm/hr 0.61 in15.5 mm
11:50 PM 63.1°F17.3°C 61.1°F16.2°C 93% Calm Calm -- 29.94 in1013.9 mb 0.08 in2.0 mm 0.00 in/hr0.0 mm/hr 0.61 in15.5 mm
11:52 PM 63.1°F17.3°C 61.1°F16.2°C 93% Calm Calm -- 29.95 in1014.2 mb 0.08 in2.0 mm 0.00 in/hr0.0 mm/hr 0.63 in16.0 mm
11:54 PM 63.1°F17.3°C 61.1°F16.2°C 93% Calm Calm -- 29.95 in1014.2 mb 0.08 in2.0 mm 0.00 in/hr0.0 mm/hr 0.63 in16.0 mm
11:56 PM 63.1°F17.3°C 61.1°F16.2°C 93% Calm Calm -- 29.95 in1014.2 mb 0.08 in2.0 mm 0.00 in/hr0.0 mm/hr 0.63 in16.0 mm
11:58 PM 63.1°F17.3°C 61.1°F16.2°C 93% Calm Calm -- 29.95 in1014.2 mb 0.08 in2.0 mm 0.00 in/hr0.0 mm/hr 0.63 in16.0 mm